Observation data for Estelline on 08/13/2020      Previous  Date       Current Mesonet Observations  Soil Data  Daily Summary Page  Observations in Plain Language
KES1 130500Z 17008KT 32/14 A2987 RMK A01 T03170142  RH  035%=      5-min Rain = 0
KES1 130501Z 18008KT 32/14 A2987 RMK A01 T03170142  RH  035%=      5-min Rain = 0
KES1 130502Z 17008KT 32/14 A2987 RMK A01 T03160142  RH  035%=      5-min Rain = 0
KES1 130503Z 17008KT 32/14 A2987 RMK A01 T03160141  RH  035%=      5-min Rain = 0
KES1 130504Z 17006KT 32/14 A2987 RMK A01 T03170141  RH  035%=      5-min Rain = 0
KES1 130505Z 17007KT 32/14 A2987 RMK A01 T03170141  RH  035%=      5-min Rain = 0
KES1 130506Z 17008KT 32/14 A2987 RMK A01 T03170142  RH  035%=      5-min Rain = 0
KES1 130507Z 16008KT 32/14 A2987 RMK A01 T03170141  RH  034%=      5-min Rain = 0
KES1 130508Z 17008KT 32/14 A2987 RMK A01 T03170141  RH  034%=      5-min Rain = 0
KES1 130509Z 17008KT 32/14 A2987 RMK A01 T03170141  RH  034%=      5-min Rain = 0
KES1 130510Z 17009KT 32/14 A2987 RMK A01 T03170141  RH  034%=      5-min Rain = 0
KES1 130511Z 17008KT 32/14 A2987 RMK A01 T03170141  RH  034%=      5-min Rain = 0
KES1 130512Z 17008KT 32/14 A2987 RMK A01 T03180142  RH  034%=      5-min Rain = 0
KES1 130513Z 17009KT 32/14 A2987 RMK A01 T03170142  RH  035%=      5-min Rain = 0
KES1 130514Z 17008KT 32/14 A2987 RMK A01 T03170141  RH  035%=      5-min Rain = 0
KES1 130515Z 17008KT 32/14 A2987 RMK A01 T03160141  RH  035%=      5-min Rain = 0
KES1 130516Z 16007KT 32/14 A2987 RMK A01 T03160141  RH  035%=      5-min Rain = 0
KES1 130517Z 17008KT 32/14 A2987 RMK A01 T03170141  RH  035%=      5-min Rain = 0
KES1 130518Z 17007KT 32/14 A2987 RMK A01 T03160141  RH  035%=      5-min Rain = 0
KES1 130519Z 16008KT 32/14 A2987 RMK A01 T03170141  RH  035%=      5-min Rain = 0
KES1 130520Z 17008KT 32/14 A2987 RMK A01 T03160141  RH  035%=      5-min Rain = 0
KES1 130521Z 17007KT 32/14 A2987 RMK A01 T03160141  RH  035%=      5-min Rain = 0
KES1 130522Z 17008KT 32/14 A2987 RMK A01 T03150141  RH  035%=      5-min Rain = 0
KES1 130523Z 16009KT 32/14 A2987 RMK A01 T03150141  RH  035%=      5-min Rain = 0
KES1 130524Z 16009KT 32/14 A2987 RMK A01 T03160141  RH  035%=      5-min Rain = 0
KES1 130525Z 16009KT 32/14 A2987 RMK A01 T03160141  RH  034%=      5-min Rain = 0
KES1 130526Z 16009KT 32/14 A2987 RMK A01 T03160141  RH  034%=      5-min Rain = 0
KES1 130527Z 16008KT 32/14 A2987 RMK A01 T03160141  RH  034%=      5-min Rain = 0
KES1 130528Z 16009KT 32/14 A2987 RMK A01 T03160141  RH  034%=      5-min Rain = 0
KES1 130529Z 16008KT 32/14 A2988 RMK A01 T03160141  RH  034%=      5-min Rain = 0
KES1 130530Z 16009KT 32/14 A2988 RMK A01 T03160141  RH  034%=      5-min Rain = 0
KES1 130531Z 16009KT 32/14 A2988 RMK A01 T03160141  RH  034%=      5-min Rain = 0
KES1 130532Z 16007KT 32/14 A2988 RMK A01 T03160140  RH  034%=      5-min Rain = 0
KES1 130533Z 16008KT 32/14 A2988 RMK A01 T03160140  RH  034%=      5-min Rain = 0
KES1 130534Z 16008KT 32/14 A2988 RMK A01 T03160140  RH  034%=      5-min Rain = 0
KES1 130535Z 16009KT 32/14 A2988 RMK A01 T03160140  RH  035%=      5-min Rain = 0
KES1 130536Z 16007KT 32/14 A2988 RMK A01 T03150140  RH  035%=      5-min Rain = 0
KES1 130537Z 16007KT 32/14 A2988 RMK A01 T03150140  RH  035%=      5-min Rain = 0
KES1 130538Z 16007KT 31/14 A2988 RMK A01 T03130140  RH  035%=      5-min Rain = 0
KES1 130539Z 16007KT 31/14 A2988 RMK A01 T03130140  RH  035%=      5-min Rain = 0
KES1 130540Z 16006KT 31/14 A2988 RMK A01 T03120140  RH  035%=      5-min Rain = 0
KES1 130541Z 16007KT 31/14 A2988 RMK A01 T03120140  RH  035%=      5-min Rain = 0
KES1 130542Z 16008KT 31/14 A2988 RMK A01 T03120140  RH  035%=      5-min Rain = 0
KES1 130543Z 16008KT 31/14 A2988 RMK A01 T03120140  RH  035%=      5-min Rain = 0
KES1 130544Z 15007KT 31/14 A2988 RMK A01 T03120140  RH  035%=      5-min Rain = 0
KES1 130545Z 16008KT 31/14 A2988 RMK A01 T03110140  RH  035%=      5-min Rain = 0
KES1 130546Z 15007KT 31/14 A2988 RMK A01 T03110140  RH  035%=      5-min Rain = 0
KES1 130547Z 15007KT 31/14 A2988 RMK A01 T03100140  RH  036%=      5-min Rain = 0
KES1 130548Z 15008KT 31/14 A2988 RMK A01 T03090140  RH  036%=      5-min Rain = 0
KES1 130549Z 15007KT 31/14 A2988 RMK A01 T03090140  RH  036%=      5-min Rain = 0
KES1 130550Z 15008KT 31/14 A2988 RMK A01 T03080140  RH  036%=      5-min Rain = 0
KES1 130551Z 15007KT 31/14 A2988 RMK A01 T03080140  RH  036%=      5-min Rain = 0
KES1 130552Z 16008KT 31/14 A2988 RMK A01 T03070140  RH  036%=      5-min Rain = 0
KES1 130553Z 16008KT 31/14 A2988 RMK A01 T03070140  RH  036%=      5-min Rain = 0
KES1 130554Z 16008KT 31/14 A2988 RMK A01 T03060140  RH  036%=      5-min Rain = 0
KES1 130555Z 15008KT 31/14 A2988 RMK A01 T03060140  RH  036%=      5-min Rain = 0
KES1 130556Z 16007KT 31/14 A2988 RMK A01 T03070140  RH  036%=      5-min Rain = 0
KES1 130557Z 16007KT 31/14 A2988 RMK A01 T03070139  RH  036%=      5-min Rain = 0
KES1 130558Z 16008KT 31/14 A2988 RMK A01 T03070139  RH  036%=      5-min Rain = 0
KES1 130559Z 16008KT 31/14 A2988 RMK A01 T03070139  RH  036%=      5-min Rain = 0
KES1 130600Z 16008KT 31/14 A2988 RMK A01 T03070139  RH  036%=      5-min Rain = 0
KES1 130601Z 16007KT 31/14 A2988 RMK A01 T03060139  RH  036%=      5-min Rain = 0
KES1 130602Z 16008KT 31/14 A2988 RMK A01 T03070139  RH  036%=      5-min Rain = 0
KES1 130603Z 16008KT 31/14 A2988 RMK A01 T03070139  RH  036%=      5-min Rain = 0
KES1 130604Z 16008KT 31/14 A2988 RMK A01 T03070139  RH  036%=      5-min Rain = 0
KES1 130605Z 16008KT 31/14 A2988 RMK A01 T03070139  RH  036%=      5-min Rain = 0
KES1 130606Z 16008KT 31/14 A2988 RMK A01 T03070139  RH  036%=      5-min Rain = 0
KES1 130607Z 16008KT 31/14 A2988 RMK A01 T03070139  RH  036%=      5-min Rain = 0
KES1 130608Z 16008KT 31/14 A2988 RMK A01 T03080139  RH  036%=      5-min Rain = 0
KES1 130609Z 16009KT 31/14 A2988 RMK A01 T03080139  RH  036%=      5-min Rain = 0
KES1 130610Z 16008KT 31/14 A2988 RMK A01 T03080139  RH  036%=      5-min Rain = 0
KES1 130611Z 16008KT 31/14 A2988 RMK A01 T03080139  RH  036%=      5-min Rain = 0
KES1 130612Z 16007KT 31/14 A2988 RMK A01 T03070139  RH  036%=      5-min Rain = 0
KES1 130613Z 16007KT 31/14 A2988 RMK A01 T03070139  RH  036%=      5-min Rain = 0
KES1 130614Z 16007KT 31/14 A2988 RMK A01 T03070139  RH  036%=      5-min Rain = 0
KES1 130615Z 16007KT 31/14 A2988 RMK A01 T03060139  RH  036%=      5-min Rain = 0
KES1 130616Z 16008KT 31/14 A2988 RMK A01 T03060139  RH  036%=      5-min Rain = 0
KES1 130617Z 16007KT 31/14 A2988 RMK A01 T03060139  RH  036%=      5-min Rain = 0
KES1 130618Z 16006KT 31/14 A2988 RMK A01 T03060139  RH  036%=      5-min Rain = 0
KES1 130619Z 16007KT 31/14 A2988 RMK A01 T03060139  RH  036%=      5-min Rain = 0
KES1 130620Z 16007KT 31/14 A2988 RMK A01 T03060139  RH  036%=      5-min Rain = 0
KES1 130621Z 17007KT 31/14 A2988 RMK A01 T03050139  RH  036%=      5-min Rain = 0
KES1 130622Z 16006KT 31/14 A2988 RMK A01 T03050139  RH  036%=      5-min Rain = 0
KES1 130623Z 16007KT 30/14 A2988 RMK A01 T03040139  RH  036%=      5-min Rain = 0
KES1 130624Z 16006KT 30/14 A2988 RMK A01 T03040139  RH  036%=      5-min Rain = 0
KES1 130625Z 16007KT 30/14 A2988 RMK A01 T03030139  RH  037%=      5-min Rain = 0
KES1 130626Z 17006KT 30/14 A2988 RMK A01 T03030139  RH  037%=      5-min Rain = 0
KES1 130627Z 16007KT 30/14 A2988 RMK A01 T03030139  RH  037%=      5-min Rain = 0
KES1 130628Z 16007KT 30/14 A2988 RMK A01 T03030139  RH  037%=      5-min Rain = 0
KES1 130629Z 16005KT 30/14 A2988 RMK A01 T03030139  RH  037%=      5-min Rain = 0
KES1 130630Z 16006KT 30/14 A2988 RMK A01 T03020139  RH  037%=      5-min Rain = 0
KES1 130631Z 16006KT 30/14 A2988 RMK A01 T03010139  RH  037%=      5-min Rain = 0
KES1 130632Z 16006KT 30/14 A2988 RMK A01 T03010139  RH  037%=      5-min Rain = 0
KES1 130633Z 16006KT 30/14 A2988 RMK A01 T03000138  RH  037%=      5-min Rain = 0
KES1 130634Z 16005KT 30/14 A2988 RMK A01 T02990139  RH  038%=      5-min Rain = 0
KES1 130635Z 16005KT 30/14 A2988 RMK A01 T02980139  RH  038%=      5-min Rain = 0
KES1 130636Z 16005KT 30/14 A2988 RMK A01 T02980139  RH  038%=      5-min Rain = 0
KES1 130637Z 16005KT 30/14 A2988 RMK A01 T02970139  RH  038%=      5-min Rain = 0
KES1 130638Z 16005KT 30/14 A2988 RMK A01 T02970139  RH  038%=      5-min Rain = 0
KES1 130639Z 17004KT 30/14 A2988 RMK A01 T02970139  RH  038%=      5-min Rain = 0
KES1 130640Z 17005KT 30/14 A2988 RMK A01 T02960139  RH  038%=      5-min Rain = 0
KES1 130641Z 16004KT 30/14 A2988 RMK A01 T02960138  RH  038%=      5-min Rain = 0
KES1 130642Z 16004KT 30/14 A2988 RMK A01 T02960139  RH  038%=      5-min Rain = 0
KES1 130643Z 17004KT 30/14 A2988 RMK A01 T02950139  RH  038%=      5-min Rain = 0
KES1 130644Z 17004KT 30/14 A2988 RMK A01 T02950139  RH  038%=      5-min Rain = 0
KES1 130645Z 16004KT 30/14 A2988 RMK A01 T02950139  RH  038%=      5-min Rain = 0
KES1 130646Z 16004KT 30/14 A2988 RMK A01 T02950139  RH  038%=      5-min Rain = 0
KES1 130647Z 16004KT 30/14 A2988 RMK A01 T02950139  RH  038%=      5-min Rain = 0
KES1 130648Z 16004KT 29/14 A2988 RMK A01 T02940138  RH  039%=      5-min Rain = 0
KES1 130649Z 17005KT 29/14 A2988 RMK A01 T02930139  RH  039%=      5-min Rain = 0
KES1 130650Z 16005KT 29/14 A2988 RMK A01 T02930139  RH  039%=      5-min Rain = 0
KES1 130651Z 17005KT 29/14 A2988 RMK A01 T02920139  RH  039%=      5-min Rain = 0
KES1 130652Z 16004KT 29/14 A2988 RMK A01 T02920139  RH  039%=      5-min Rain = 0
KES1 130653Z 16005KT 29/14 A2988 RMK A01 T02920139  RH  039%=      5-min Rain = 0
KES1 130654Z 16005KT 29/14 A2988 RMK A01 T02910139  RH  039%=      5-min Rain = 0
KES1 130655Z 16005KT 29/14 A2988 RMK A01 T02910139  RH  039%=      5-min Rain = 0
KES1 130656Z 16005KT 29/14 A2988 RMK A01 T02900139  RH  039%=      5-min Rain = 0
KES1 130657Z 16005KT 29/14 A2987 RMK A01 T02900139  RH  039%=      5-min Rain = 0
KES1 130658Z 16005KT 29/14 A2987 RMK A01 T02900138  RH  039%=      5-min Rain = 0
KES1 130659Z 16005KT 29/14 A2987 RMK A01 T02900138  RH  039%=      5-min Rain = 0
KES1 130700Z 16006KT 29/14 A2987 RMK A01 T02900139  RH  040%=      5-min Rain = 0
KES1 130701Z 16005KT 29/14 A2987 RMK A01 T02900138  RH  039%=      5-min Rain = 0
KES1 130702Z 16005KT 29/14 A2987 RMK A01 T02900138  RH  039%=      5-min Rain = 0
KES1 130703Z 17005KT 29/14 A2987 RMK A01 T02900139  RH  039%=      5-min Rain = 0
KES1 130704Z 16005KT 29/14 A2987 RMK A01 T02900139  RH  039%=      5-min Rain = 0
KES1 130705Z 16005KT 29/14 A2987 RMK A01 T02900138  RH  039%=      5-min Rain = 0
KES1 130706Z 16005KT 29/14 A2987 RMK A01 T02900139  RH  039%=      5-min Rain = 0
KES1 130707Z 17005KT 29/14 A2987 RMK A01 T02900138  RH  039%=      5-min Rain = 0
KES1 130708Z 17006KT 29/14 A2987 RMK A01 T02910139  RH  039%=      5-min Rain = 0
KES1 130709Z 17005KT 29/14 A2987 RMK A01 T02900139  RH  039%=      5-min Rain = 0
KES1 130710Z 17005KT 29/14 A2987 RMK A01 T02900139  RH  040%=      5-min Rain = 0
KES1 130711Z 16005KT 29/14 A2987 RMK A01 T02900139  RH  040%=      5-min Rain = 0
KES1 130712Z 17005KT 29/14 A2987 RMK A01 T02900139  RH  040%=      5-min Rain = 0
KES1 130713Z 16005KT 29/14 A2987 RMK A01 T02890138  RH  040%=      5-min Rain = 0
KES1 130714Z 16005KT 29/14 A2987 RMK A01 T02890139  RH  040%=      5-min Rain = 0
KES1 130715Z 16006KT 29/14 A2987 RMK A01 T02890139  RH  040%=      5-min Rain = 0
KES1 130716Z 17005KT 29/14 A2987 RMK A01 T02890139  RH  040%=      5-min Rain = 0
KES1 130717Z 16005KT 29/14 A2987 RMK A01 T02890139  RH  040%=      5-min Rain = 0
KES1 130718Z 17005KT 29/14 A2987 RMK A01 T02880138  RH  040%=      5-min Rain = 0
KES1 130719Z 17005KT 29/14 A2987 RMK A01 T02880138  RH  040%=      5-min Rain = 0
KES1 130720Z 16005KT 29/14 A2987 RMK A01 T02880138  RH  040%=      5-min Rain = 0
KES1 130721Z 17005KT 29/14 A2987 RMK A01 T02880138  RH  040%=      5-min Rain = 0
KES1 130722Z 16005KT 29/14 A2987 RMK A01 T02880138  RH  040%=      5-min Rain = 0
KES1 130723Z 16005KT 29/14 A2987 RMK A01 T02880138  RH  040%=      5-min Rain = 0
KES1 130724Z 16005KT 29/14 A2987 RMK A01 T02880139  RH  040%=      5-min Rain = 0
KES1 130725Z 16004KT 29/14 A2987 RMK A01 T02880139  RH  040%=      5-min Rain = 0
KES1 130726Z 16005KT 29/14 A2987 RMK A01 T02880139  RH  040%=      5-min Rain = 0
KES1 130727Z 16005KT 29/14 A2987 RMK A01 T02870139  RH  040%=      5-min Rain = 0
KES1 130728Z 16004KT 29/14 A2987 RMK A01 T02860138  RH  040%=      5-min Rain = 0
KES1 130729Z 17005KT 29/14 A2987 RMK A01 T02860138  RH  040%=      5-min Rain = 0
KES1 130730Z 16004KT 29/14 A2987 RMK A01 T02860138  RH  040%=      5-min Rain = 0
KES1 130731Z 17005KT 29/14 A2987 RMK A01 T02860139  RH  040%=      5-min Rain = 0
KES1 130732Z 17005KT 29/14 A2987 RMK A01 T02860139  RH  040%=      5-min Rain = 0
KES1 130733Z 17004KT 29/14 A2987 RMK A01 T02860138  RH  040%=      5-min Rain = 0
KES1 130734Z 17004KT 29/14 A2987 RMK A01 T02860139  RH  040%=      5-min Rain = 0
KES1 130735Z 18004KT 29/14 A2987 RMK A01 T02860139  RH  040%=      5-min Rain = 0
KES1 130736Z 18004KT 29/14 A2987 RMK A01 T02860139  RH  040%=      5-min Rain = 0
KES1 130737Z 17004KT 29/14 A2987 RMK A01 T02870139  RH  040%=      5-min Rain = 0
KES1 130738Z 18003KT 29/14 A2987 RMK A01 T02860139  RH  040%=      5-min Rain = 0
KES1 130739Z 18004KT 29/14 A2987 RMK A01 T02860139  RH  040%=      5-min Rain = 0
KES1 130740Z 18004KT 29/14 A2987 RMK A01 T02860139  RH  040%=      5-min Rain = 0
KES1 130741Z 18004KT 29/14 A2987 RMK A01 T02860139  RH  040%=      5-min Rain = 0
KES1 130742Z 18004KT 29/14 A2987 RMK A01 T02860139  RH  040%=      5-min Rain = 0
KES1 130743Z 18005KT 29/14 A2987 RMK A01 T02860139  RH  041%=      5-min Rain = 0
KES1 130744Z 18004KT 29/14 A2987 RMK A01 T02860139  RH  041%=      5-min Rain = 0
KES1 130745Z 18003KT 29/14 A2987 RMK A01 T02850139  RH  041%=      5-min Rain = 0
KES1 130746Z 19004KT 28/14 A2987 RMK A01 T02840139  RH  041%=      5-min Rain = 0
KES1 130747Z 19004KT 28/14 A2987 RMK A01 T02830139  RH  041%=      5-min Rain = 0
KES1 130748Z 19004KT 28/14 A2987 RMK A01 T02820139  RH  042%=      5-min Rain = 0
KES1 130749Z 19004KT 28/14 A2987 RMK A01 T02800139  RH  042%=      5-min Rain = 0
KES1 130750Z 20003KT 28/14 A2987 RMK A01 T02790139  RH  042%=      5-min Rain = 0
KES1 130751Z 20004KT 28/14 A2987 RMK A01 T02770139  RH  043%=      5-min Rain = 0
KES1 130752Z 19004KT 28/14 A2987 RMK A01 T02750140  RH  043%=      5-min Rain = 0
KES1 130753Z 19003KT 27/14 A2987 RMK A01 T02730140  RH  044%=      5-min Rain = 0
KES1 130754Z 19005KT 27/14 A2987 RMK A01 T02710139  RH  044%=      5-min Rain = 0
KES1 130755Z 19003KT 27/14 A2987 RMK A01 T02700139  RH  044%=      5-min Rain = 0
KES1 130756Z 19004KT 27/14 A2987 RMK A01 T02700139  RH  045%=      5-min Rain = 0
KES1 130757Z 19004KT 27/14 A2987 RMK A01 T02680139  RH  045%=      5-min Rain = 0
KES1 130758Z 19004KT 27/14 A2987 RMK A01 T02660139  RH  046%=      5-min Rain = 0
KES1 130759Z 19004KT 27/14 A2987 RMK A01 T02650139  RH  046%=      5-min Rain = 0
KES1 130800Z 19004KT 26/14 A2987 RMK A01 T02640139  RH  046%=      5-min Rain = 0
KES1 130801Z 19005KT 27/14 A2987 RMK A01 T02650139  RH  046%=      5-min Rain = 0
KES1 130802Z 19006KT 27/14 A2987 RMK A01 T02690139  RH  045%=      5-min Rain = 0
KES1 130803Z 19006KT 27/14 A2987 RMK A01 T02730140  RH  044%=      5-min Rain = 0
KES1 130804Z 18006KT 28/14 A2987 RMK A01 T02770140  RH  043%=      5-min Rain = 0
KES1 130805Z 19006KT 28/14 A2987 RMK A01 T02790140  RH  043%=      5-min Rain = 0
KES1 130806Z 18006KT 28/14 A2987 RMK A01 T02810141  RH  042%=      5-min Rain = 0
KES1 130807Z 18005KT 28/14 A2987 RMK A01 T02820141  RH  042%=      5-min Rain = 0
KES1 130808Z 19005KT 28/14 A2987 RMK A01 T02830141  RH  042%=      5-min Rain = 0
KES1 130809Z 18006KT 28/14 A2987 RMK A01 T02830140  RH  042%=      5-min Rain = 0
KES1 130810Z 18006KT 28/14 A2987 RMK A01 T02840141  RH  042%=      5-min Rain = 0
KES1 130811Z 19006KT 28/14 A2987 RMK A01 T02840141  RH  042%=      5-min Rain = 0
KES1 130812Z 19006KT 28/14 A2987 RMK A01 T02840141  RH  042%=      5-min Rain = 0
KES1 130813Z 19006KT 28/14 A2987 RMK A01 T02840141  RH  042%=      5-min Rain = 0
KES1 130814Z 19006KT 28/14 A2987 RMK A01 T02840141  RH  042%=      5-min Rain = 0
KES1 130815Z 19006KT 28/14 A2987 RMK A01 T02840141  RH  042%=      5-min Rain = 0
KES1 130816Z 19006KT 28/14 A2987 RMK A01 T02840141  RH  042%=      5-min Rain = 0
KES1 130817Z 19006KT 28/14 A2987 RMK A01 T02840142  RH  042%=      5-min Rain = 0
KES1 130818Z 20006KT 28/14 A2987 RMK A01 T02830142  RH  042%=      5-min Rain = 0
KES1 130819Z 20004KT 28/14 A2987 RMK A01 T02830142  RH  042%=      5-min Rain = 0
KES1 130820Z 22003KT 28/14 A2987 RMK A01 T02820142  RH  042%=      5-min Rain = 0
KES1 130821Z 22003KT 28/14 A2987 RMK A01 T02800141  RH  043%=      5-min Rain = 0
KES1 130822Z 26002KT 28/14 A2987 RMK A01 T02780141  RH  043%=      5-min Rain = 0
KES1 130823Z 26003KT 27/14 A2987 RMK A01 T02730141  RH  044%=      5-min Rain = 0
KES1 130824Z 26003KT 27/14 A2987 RMK A01 T02670140  RH  045%=      5-min Rain = 0
KES1 130825Z 25004KT 26/14 A2987 RMK A01 T02630140  RH  047%=      5-min Rain = 0
KES1 130826Z 24004KT 26/14 A2987 RMK A01 T02590140  RH  048%=      5-min Rain = 0
KES1 130827Z 24004KT 26/14 A2987 RMK A01 T02560140  RH  048%=      5-min Rain = 0
KES1 130828Z 24004KT 26/14 A2987 RMK A01 T02550140  RH  049%=      5-min Rain = 0
KES1 130829Z 24004KT 25/14 A2987 RMK A01 T02540140  RH  049%=      5-min Rain = 0
KES1 130830Z 23004KT 25/14 A2987 RMK A01 T02530141  RH  050%=      5-min Rain = 0
KES1 130831Z 23004KT 25/14 A2987 RMK A01 T02530141  RH  050%=      5-min Rain = 0
KES1 130832Z 23005KT 25/14 A2987 RMK A01 T02530141  RH  050%=      5-min Rain = 0
KES1 130833Z 22005KT 25/14 A2986 RMK A01 T02540141  RH  050%=      5-min Rain = 0
KES1 130834Z 23005KT 25/14 A2986 RMK A01 T02540141  RH  050%=      5-min Rain = 0
KES1 130835Z 23005KT 25/14 A2986 RMK A01 T02540141  RH  049%=      5-min Rain = 0
KES1 130836Z 22005KT 25/14 A2986 RMK A01 T02540141  RH  049%=      5-min Rain = 0
KES1 130837Z 22005KT 26/14 A2986 RMK A01 T02550141  RH  049%=      5-min Rain = 0
KES1 130838Z 22006KT 26/14 A2986 RMK A01 T02550142  RH  049%=      5-min Rain = 0
KES1 130839Z 21006KT 26/14 A2986 RMK A01 T02560142  RH  049%=      5-min Rain = 0
KES1 130840Z 22006KT 26/14 A2986 RMK A01 T02570143  RH  049%=      5-min Rain = 0
KES1 130841Z 21006KT 26/14 A2986 RMK A01 T02580143  RH  049%=      5-min Rain = 0
KES1 130842Z 21006KT 26/14 A2986 RMK A01 T02590143  RH  049%=      5-min Rain = 0
KES1 130843Z 21006KT 26/14 A2986 RMK A01 T02590143  RH  049%=      5-min Rain = 0
KES1 130844Z 21006KT 26/14 A2986 RMK A01 T02600143  RH  048%=      5-min Rain = 0
KES1 130845Z 21006KT 26/14 A2986 RMK A01 T02620144  RH  048%=      5-min Rain = 0
KES1 130846Z 21007KT 26/14 A2986 RMK A01 T02640143  RH  048%=      5-min Rain = 0
KES1 130847Z 21006KT 27/14 A2986 RMK A01 T02650144  RH  047%=      5-min Rain = 0
KES1 130848Z 21006KT 27/14 A2986 RMK A01 T02660144  RH  047%=      5-min Rain = 0
KES1 130849Z 21006KT 27/14 A2986 RMK A01 T02670143  RH  047%=      5-min Rain = 0
KES1 130850Z 21006KT 27/14 A2986 RMK A01 T02680143  RH  046%=      5-min Rain = 0
KES1 130851Z 21006KT 27/14 A2986 RMK A01 T02690143  RH  046%=      5-min Rain = 0
KES1 130852Z 21006KT 27/14 A2986 RMK A01 T02700144  RH  046%=      5-min Rain = 0
KES1 130853Z 22006KT 27/14 A2986 RMK A01 T02710143  RH  046%=      5-min Rain = 0
KES1 130854Z 22006KT 27/14 A2986 RMK A01 T02720143  RH  045%=      5-min Rain = 0
KES1 130855Z 22006KT 27/14 A2986 RMK A01 T02730143  RH  045%=      5-min Rain = 0
KES1 130856Z 22006KT 27/14 A2986 RMK A01 T02730143  RH  045%=      5-min Rain = 0
KES1 130857Z 22006KT 27/14 A2986 RMK A01 T02740143  RH  045%=      5-min Rain = 0
KES1 130858Z 21006KT 27/14 A2986 RMK A01 T02740143  RH  045%=      5-min Rain = 0
KES1 130859Z 21005KT 28/14 A2986 RMK A01 T02750143  RH  044%=      5-min Rain = 0
KES1 130900Z 21005KT 28/14 A2986 RMK A01 T02760143  RH  044%=      5-min Rain = 0
KES1 130901Z 21005KT 28/14 A2986 RMK A01 T02760143  RH  044%=      5-min Rain = 0
KES1 130902Z 21005KT 28/14 A2986 RMK A01 T02770143  RH  044%=      5-min Rain = 0
KES1 130903Z 21005KT 28/14 A2986 RMK A01 T02780143  RH  043%=      5-min Rain = 0
KES1 130904Z 21005KT 28/14 A2986 RMK A01 T02790143  RH  043%=      5-min Rain = 0
KES1 130905Z 21005KT 28/14 A2986 RMK A01 T02800142  RH  043%=      5-min Rain = 0
KES1 130906Z 21005KT 28/14 A2986 RMK A01 T02800142  RH  043%=      5-min Rain = 0
KES1 130907Z 22005KT 28/14 A2986 RMK A01 T02800142  RH  043%=      5-min Rain = 0
KES1 130908Z 21004KT 28/14 A2986 RMK A01 T02810142  RH  043%=      5-min Rain = 0
KES1 130909Z 21004KT 28/14 A2986 RMK A01 T02810142  RH  042%=      5-min Rain = 0
KES1 130910Z 22004KT 28/14 A2986 RMK A01 T02820142  RH  042%=      5-min Rain = 0
KES1 130911Z 22004KT 28/14 A2986 RMK A01 T02820142  RH  042%=      5-min Rain = 0
KES1 130912Z 22004KT 28/14 A2986 RMK A01 T02830142  RH  042%=      5-min Rain = 0
KES1 130913Z 21004KT 28/14 A2986 RMK A01 T02830141  RH  042%=      5-min Rain = 0
KES1 130914Z 22004KT 28/14 A2986 RMK A01 T02830141  RH  042%=      5-min Rain = 0
KES1 130915Z 20004KT 29/14 A2986 RMK A01 T02850141  RH  041%=      5-min Rain = 0
KES1 130916Z 21004KT 29/14 A2986 RMK A01 T02850141  RH  041%=      5-min Rain = 0
KES1 130917Z 21005KT 29/14 A2986 RMK A01 T02860140  RH  041%=      5-min Rain = 0
KES1 130918Z 21005KT 29/14 A2986 RMK A01 T02880140  RH  040%=      5-min Rain = 0
KES1 130919Z 20004KT 29/14 A2986 RMK A01 T02900140  RH  040%=      5-min Rain = 0
KES1 130920Z 20005KT 29/14 A2986 RMK A01 T02910140  RH  040%=      5-min Rain = 0
KES1 130921Z 20005KT 29/14 A2986 RMK A01 T02900139  RH  040%=      5-min Rain = 0
KES1 130922Z 20005KT 29/14 A2986 RMK A01 T02910139  RH  040%=      5-min Rain = 0
KES1 130923Z 20004KT 29/14 A2986 RMK A01 T02910139  RH  039%=      5-min Rain = 0
KES1 130924Z 20004KT 29/14 A2986 RMK A01 T02920140  RH  039%=      5-min Rain = 0
KES1 130925Z 20004KT 29/14 A2986 RMK A01 T02920139  RH  039%=      5-min Rain = 0
KES1 130926Z 21004KT 29/14 A2986 RMK A01 T02930139  RH  039%=      5-min Rain = 0
KES1 130927Z 21004KT 29/14 A2986 RMK A01 T02920139  RH  039%=      5-min Rain = 0
KES1 130928Z 21004KT 29/14 A2987 RMK A01 T02930139  RH  039%=      5-min Rain = 0
KES1 130929Z 21004KT 29/14 A2986 RMK A01 T02920139  RH  039%=      5-min Rain = 0
KES1 130930Z 22004KT 29/14 A2986 RMK A01 T02920139  RH  039%=      5-min Rain = 0
KES1 130931Z 21003KT 29/14 A2986 RMK A01 T02920138  RH  039%=      5-min Rain = 0
KES1 130932Z 21004KT 29/14 A2986 RMK A01 T02930139  RH  039%=      5-min Rain = 0
KES1 130933Z 22004KT 29/14 A2987 RMK A01 T02920139  RH  039%=      5-min Rain = 0
KES1 130934Z 22005KT 29/14 A2987 RMK A01 T02920138  RH  039%=      5-min Rain = 0
KES1 130935Z 21007KT 29/14 A2987 RMK A01 T02930138  RH  039%=      5-min Rain = 0
KES1 130936Z 22005KT 30/14 A2987 RMK A01 T02950138  RH  038%=      5-min Rain = 0
KES1 130937Z 22004KT 30/14 A2987 RMK A01 T02970138  RH  038%=      5-min Rain = 0
KES1 130938Z 24003KT 30/14 A2987 RMK A01 T02980138  RH  038%=      5-min Rain = 0
KES1 130939Z 22004KT 30/14 A2987 RMK A01 T02970138  RH  038%=      5-min Rain = 0
KES1 130940Z 23004KT 30/14 A2987 RMK A01 T02960138  RH  038%=      5-min Rain = 0
KES1 130941Z 23004KT 30/14 A2987 RMK A01 T02950138  RH  038%=      5-min Rain = 0
KES1 130942Z 23005KT 29/14 A2987 RMK A01 T02940138  RH  038%=      5-min Rain = 0
KES1 130943Z 23005KT 29/14 A2987 RMK A01 T02940138  RH  038%=      5-min Rain = 0
KES1 130944Z 23004KT 29/14 A2987 RMK A01 T02940138  RH  038%=      5-min Rain = 0
KES1 130945Z 24004KT 30/14 A2987 RMK A01 T02950138  RH  038%=      5-min Rain = 0
KES1 130946Z 23004KT 30/14 A2987 RMK A01 T02950138  RH  038%=      5-min Rain = 0
KES1 130947Z 23005KT 29/14 A2987 RMK A01 T02940138  RH  038%=      5-min Rain = 0
KES1 130948Z 24004KT 29/14 A2987 RMK A01 T02940138  RH  039%=      5-min Rain = 0
KES1 130949Z 23003KT 29/14 A2987 RMK A01 T02930138  RH  039%=      5-min Rain = 0
KES1 130950Z 23004KT 29/14 A2987 RMK A01 T02920138  RH  039%=      5-min Rain = 0
KES1 130951Z 23006KT 29/14 A2987 RMK A01 T02900138  RH  039%=      5-min Rain = 0
KES1 130952Z 24005KT 29/14 A2987 RMK A01 T02900138  RH  039%=      5-min Rain = 0
KES1 130953Z 23004KT 29/14 A2987 RMK A01 T02900138  RH  039%=      5-min Rain = 0
KES1 130954Z 23005KT 29/14 A2987 RMK A01 T02900138  RH  040%=      5-min Rain = 0
KES1 130955Z 23005KT 29/14 A2987 RMK A01 T02890138  RH  040%=      5-min Rain = 0
KES1 130956Z 23006KT 29/14 A2987 RMK A01 T02890138  RH  040%=      5-min Rain = 0
KES1 130957Z 22006KT 29/14 A2987 RMK A01 T02890138  RH  040%=      5-min Rain = 0
KES1 130958Z 23005KT 29/14 A2987 RMK A01 T02890138  RH  040%=      5-min Rain = 0
KES1 130959Z 23006KT 29/14 A2987 RMK A01 T02880138  RH  040%=      5-min Rain = 0
KES1 131000Z 24007KT 29/14 A2987 RMK A01 T02880139  RH  040%=      5-min Rain = 0
KES1 131001Z 24005KT 29/14 A2987 RMK A01 T02880139  RH  040%=      5-min Rain = 0
KES1 131002Z 27005KT 29/14 A2987 RMK A01 T02890139  RH  040%=      5-min Rain = 0
KES1 131003Z 27005KT 29/14 A2987 RMK A01 T02870140  RH  041%=      5-min Rain = 0
KES1 131004Z 28005KT 28/14 A2987 RMK A01 T02790139  RH  042%=      5-min Rain = 0
KES1 131005Z 29006KT 27/14 A2987 RMK A01 T02730140  RH  044%=      5-min Rain = 0
KES1 131006Z 30005KT 27/14 A2987 RMK A01 T02660139  RH  046%=      5-min Rain = 0
KES1 131007Z 31006KT 26/14 A2987 RMK A01 T02600139  RH  047%=      5-min Rain = 0
KES1 131008Z 30006KT 26/14 A2987 RMK A01 T02560139  RH  048%=      5-min Rain = 0
KES1 131009Z 30005KT 25/14 A2987 RMK A01 T02530139  RH  049%=      5-min Rain = 0
KES1 131010Z 30004KT 25/14 A2987 RMK A01 T02510139  RH  050%=      5-min Rain = 0
KES1 131011Z 30004KT 25/14 A2988 RMK A01 T02500139  RH  050%=      5-min Rain = 0
KES1 131012Z 30003KT 25/14 A2988 RMK A01 T02500139  RH  050%=      5-min Rain = 0
KES1 131013Z 30003KT 25/14 A2987 RMK A01 T02490139  RH  051%=      5-min Rain = 0
KES1 131014Z 28003KT 25/14 A2988 RMK A01 T02480139  RH  051%=      5-min Rain = 0
KES1 131015Z 27003KT 25/14 A2988 RMK A01 T02480139  RH  051%=      5-min Rain = 0
KES1 131016Z 27002KT 25/14 A2988 RMK A01 T02480139  RH  051%=      5-min Rain = 0
KES1 131017Z 26002KT 25/14 A2988 RMK A01 T02490139  RH  050%=      5-min Rain = 0
KES1 131018Z 25002KT 25/14 A2988 RMK A01 T02500139  RH  050%=      5-min Rain = 0
KES1 131019Z 24002KT 25/14 A2988 RMK A01 T02510140  RH  050%=      5-min Rain = 0
KES1 131020Z 24002KT 25/14 A2988 RMK A01 T02520140  RH  050%=      5-min Rain = 0
KES1 131021Z 26002KT 25/14 A2988 RMK A01 T02520140  RH  050%=      5-min Rain = 0
KES1 131022Z 25002KT 25/14 A2988 RMK A01 T02530140  RH  050%=      5-min Rain = 0
KES1 131023Z 25002KT 25/14 A2988 RMK A01 T02540140  RH  049%=      5-min Rain = 0
KES1 131024Z 25002KT 26/14 A2988 RMK A01 T02550141  RH  049%=      5-min Rain = 0
KES1 131025Z 25002KT 26/14 A2988 RMK A01 T02550141  RH  049%=      5-min Rain = 0
KES1 131026Z 24003KT 26/14 A2988 RMK A01 T02550141  RH  049%=      5-min Rain = 0
KES1 131027Z 24003KT 26/14 A2988 RMK A01 T02550141  RH  049%=      5-min Rain = 0
KES1 131028Z 23003KT 26/14 A2988 RMK A01 T02550141  RH  049%=      5-min Rain = 0
KES1 131029Z 23004KT 26/14 A2988 RMK A01 T02560140  RH  049%=      5-min Rain = 0
KES1 131030Z 24004KT 26/14 A2988 RMK A01 T02570140  RH  048%=      5-min Rain = 0
KES1 131031Z 24004KT 26/14 A2988 RMK A01 T02580140  RH  048%=      5-min Rain = 0
KES1 131032Z 24004KT 26/14 A2988 RMK A01 T02590140  RH  048%=      5-min Rain = 0
KES1 131033Z 23004KT 26/14 A2988 RMK A01 T02600140  RH  048%=      5-min Rain = 0
KES1 131034Z 22004KT 26/14 A2988 RMK A01 T02610140  RH  047%=      5-min Rain = 0
KES1 131035Z 22004KT 26/14 A2988 RMK A01 T02610140  RH  047%=      5-min Rain = 0
KES1 131036Z 24003KT 26/14 A2988 RMK A01 T02610141  RH  047%=      5-min Rain = 0
KES1 131037Z 36006KT 26/14 A2988 RMK A01 T02590140  RH  048%=      5-min Rain = 0
KES1 131038Z 33004KT 26/14 A2988 RMK A01 T02550139  RH  049%=      5-min Rain = 0
KES1 131039Z 36004KT 26/14 A2988 RMK A01 T02550139  RH  049%=      5-min Rain = 0
KES1 131040Z 35003KT 26/14 A2988 RMK A01 T02550139  RH  049%=      5-min Rain = 0
KES1 131041Z 34002KT 26/14 A2988 RMK A01 T02560140  RH  049%=      5-min Rain = 0
KES1 131042Z 31001KT 26/14 A2988 RMK A01 T02560140  RH  049%=      5-min Rain = 0
KES1 131043Z 33001KT 26/14 A2988 RMK A01 T02560140  RH  049%=      5-min Rain = 0
KES1 131044Z 33000KT 26/14 A2988 RMK A01 T02580141  RH  048%=      5-min Rain = 0
KES1 131045Z 07000KT 26/14 A2988 RMK A01 T02590141  RH  048%=      5-min Rain = 0
KES1 131046Z 08001KT 26/14 A2988 RMK A01 T02580140  RH  048%=      5-min Rain = 0
KES1 131047Z 10001KT 26/14 A2988 RMK A01 T02560140  RH  048%=      5-min Rain = 0
KES1 131048Z 10001KT 26/14 A2988 RMK A01 T02550139  RH  049%=      5-min Rain = 0
KES1 131049Z 10002KT 25/14 A2988 RMK A01 T02540139  RH  049%=      5-min Rain = 0
KES1 131050Z 12002KT 25/14 A2988 RMK A01 T02540139  RH  049%=      5-min Rain = 0
KES1 131051Z 12002KT 25/14 A2988 RMK A01 T02540139  RH  049%=      5-min Rain = 0
KES1 131052Z 11002KT 25/14 A2988 RMK A01 T02540140  RH  049%=      5-min Rain = 0
KES1 131053Z 11003KT 25/14 A2988 RMK A01 T02540140  RH  049%=      5-min Rain = 0
KES1 131054Z 11003KT 25/14 A2988 RMK A01 T02540139  RH  049%=      5-min Rain = 0
KES1 131055Z 10003KT 25/14 A2988 RMK A01 T02540140  RH  049%=      5-min Rain = 0
KES1 131056Z 10003KT 25/14 A2988 RMK A01 T02540140  RH  049%=      5-min Rain = 0
KES1 131057Z 11003KT 25/14 A2988 RMK A01 T02540140  RH  049%=      5-min Rain = 0
KES1 131058Z 11003KT 25/14 A2988 RMK A01 T02540140  RH  049%=      5-min Rain = 0
KES1 131059Z 10002KT 26/14 A2988 RMK A01 T02550140  RH  049%=      5-min Rain = 0
KES1 131100Z 10002KT 26/14 A2988 RMK A01 T02560140  RH  049%=      5-min Rain = 0
KES1 131101Z 11002KT 26/14 A2988 RMK A01 T02580140  RH  048%=      5-min Rain = 0
KES1 131102Z 12002KT 26/14 A2988 RMK A01 T02580140  RH  048%=      5-min Rain = 0
KES1 131103Z 13002KT 26/14 A2988 RMK A01 T02590140  RH  048%=      5-min Rain = 0
KES1 131104Z 14002KT 26/14 A2988 RMK A01 T02590140  RH  048%=      5-min Rain = 0
KES1 131105Z 14002KT 26/14 A2988 RMK A01 T02590140  RH  048%=      5-min Rain = 0
KES1 131106Z 14002KT 26/14 A2988 RMK A01 T02590140  RH  048%=      5-min Rain = 0
KES1 131107Z 16002KT 26/14 A2988 RMK A01 T02590140  RH  048%=      5-min Rain = 0
KES1 131108Z 19001KT 26/14 A2988 RMK A01 T02590140  RH  048%=      5-min Rain = 0
KES1 131109Z 21002KT 26/14 A2988 RMK A01 T02590140  RH  048%=      5-min Rain = 0
KES1 131110Z 22001KT 26/14 A2988 RMK A01 T02610140  RH  047%=      5-min Rain = 0
KES1 131111Z 22001KT 26/14 A2988 RMK A01 T02620140  RH  047%=      5-min Rain = 0
KES1 131112Z 22001KT 26/14 A2988 RMK A01 T02630140  RH  047%=      5-min Rain = 0
KES1 131113Z 21002KT 26/14 A2988 RMK A01 T02630140  RH  047%=      5-min Rain = 0
KES1 131114Z 21002KT 26/14 A2988 RMK A01 T02620140  RH  047%=      5-min Rain = 0
KES1 131115Z 21002KT 26/14 A2988 RMK A01 T02620140  RH  047%=      5-min Rain = 0
KES1 131116Z 21002KT 26/14 A2988 RMK A01 T02600140  RH  047%=      5-min Rain = 0
KES1 131117Z 18002KT 26/14 A2988 RMK A01 T02590140  RH  048%=      5-min Rain = 0
KES1 131118Z 18002KT 26/14 A2988 RMK A01 T02590140  RH  048%=      5-min Rain = 0
KES1 131119Z 17002KT 26/14 A2988 RMK A01 T02590140  RH  048%=      5-min Rain = 0
KES1 131120Z 16002KT 26/14 A2988 RMK A01 T02590140  RH  048%=      5-min Rain = 0
KES1 131121Z 17002KT 26/14 A2988 RMK A01 T02590140  RH  048%=      5-min Rain = 0
KES1 131122Z 16002KT 26/14 A2988 RMK A01 T02590140  RH  048%=      5-min Rain = 0
KES1 131123Z 16002KT 26/14 A2988 RMK A01 T02600141  RH  048%=      5-min Rain = 0
KES1 131124Z 16002KT 26/14 A2988 RMK A01 T02590140  RH  048%=      5-min Rain = 0
KES1 131125Z 17003KT 26/14 A2988 RMK A01 T02590140  RH  048%=      5-min Rain = 0
KES1 131126Z 18002KT 26/14 A2988 RMK A01 T02590140  RH  048%=      5-min Rain = 0
KES1 131127Z 18003KT 26/14 A2988 RMK A01 T02590140  RH  048%=      5-min Rain = 0
KES1 131128Z 18003KT 26/14 A2988 RMK A01 T02590140  RH  048%=      5-min Rain = 0
KES1 131129Z 19003KT 26/14 A2988 RMK A01 T02590140  RH  048%=      5-min Rain = 0
KES1 131130Z 18003KT 26/14 A2988 RMK A01 T02590140  RH  048%=      5-min Rain = 0
KES1 131131Z 19004KT 26/14 A2988 RMK A01 T02580140  RH  048%=      5-min Rain = 0
KES1 131132Z 19004KT 26/14 A2988 RMK A01 T02580140  RH  048%=      5-min Rain = 0
KES1 131133Z 19004KT 26/14 A2988 RMK A01 T02600141  RH  048%=      5-min Rain = 0
KES1 131134Z 19004KT 26/14 A2988 RMK A01 T02630142  RH  047%=      5-min Rain = 0
KES1 131135Z 19004KT 27/14 A2988 RMK A01 T02650142  RH  047%=      5-min Rain = 0
KES1 131136Z 18005KT 27/14 A2988 RMK A01 T02660142  RH  046%=      5-min Rain = 0
KES1 131137Z 18005KT 27/14 A2988 RMK A01 T02670142  RH  046%=      5-min Rain = 0
KES1 131138Z 18005KT 27/14 A2988 RMK A01 T02670142  RH  046%=      5-min Rain = 0
KES1 131139Z 18005KT 27/14 A2988 RMK A01 T02680143  RH  046%=      5-min Rain = 0
KES1 131140Z 18004KT 27/14 A2988 RMK A01 T02700143  RH  046%=      5-min Rain = 0
KES1 131141Z 18005KT 27/14 A2988 RMK A01 T02720143  RH  045%=      5-min Rain = 0
KES1 131142Z 19005KT 27/14 A2988 RMK A01 T02730143  RH  045%=      5-min Rain = 0
KES1 131143Z 18004KT 27/14 A2988 RMK A01 T02730144  RH  045%=      5-min Rain = 0
KES1 131144Z 18004KT 27/14 A2988 RMK A01 T02740144  RH  045%=      5-min Rain = 0
KES1 131145Z 18004KT 27/14 A2989 RMK A01 T02740144  RH  045%=      5-min Rain = 0
KES1 131146Z 18004KT 27/14 A2989 RMK A01 T02730144  RH  045%=      5-min Rain = 0
KES1 131147Z 18005KT 27/14 A2989 RMK A01 T02720144  RH  045%=      5-min Rain = 0
KES1 131148Z 18005KT 27/14 A2989 RMK A01 T02710144  RH  046%=      5-min Rain = 0
KES1 131149Z 18005KT 27/14 A2989 RMK A01 T02710144  RH  046%=      5-min Rain = 0
KES1 131150Z 18005KT 27/14 A2989 RMK A01 T02720144  RH  046%=      5-min Rain = 0
KES1 131151Z 19005KT 27/14 A2989 RMK A01 T02720144  RH  046%=      5-min Rain = 0
KES1 131152Z 19004KT 27/15 A2989 RMK A01 T02730145  RH  045%=      5-min Rain = 0
KES1 131153Z 19003KT 28/15 A2989 RMK A01 T02750145  RH  045%=      5-min Rain = 0
KES1 131154Z 20003KT 28/15 A2989 RMK A01 T02760145  RH  045%=      5-min Rain = 0
KES1 131155Z 20003KT 28/15 A2989 RMK A01 T02760145  RH  045%=      5-min Rain = 0
KES1 131156Z 20003KT 28/15 A2989 RMK A01 T02770145  RH  044%=      5-min Rain = 0
KES1 131157Z 19003KT 28/15 A2989 RMK A01 T02770145  RH  044%=      5-min Rain = 0
KES1 131158Z 19003KT 28/15 A2989 RMK A01 T02770145  RH  045%=      5-min Rain = 0
KES1 131159Z 19003KT 28/15 A2989 RMK A01 T02760145  RH  045%=      5-min Rain = 0
KES1 131200Z 19004KT 27/15 A2989 RMK A01 T02740145  RH  045%=      5-min Rain = 0
KES1 131201Z 19004KT 27/14 A2989 RMK A01 T02720144  RH  045%=      5-min Rain = 0
KES1 131202Z 20004KT 27/14 A2989 RMK A01 T02700144  RH  046%=      5-min Rain = 0
KES1 131203Z 20004KT 27/14 A2989 RMK A01 T02690144  RH  046%=      5-min Rain = 0
KES1 131204Z 20003KT 27/14 A299 RMK A01 T02690144  RH  046%=      5-min Rain = 0
KES1 131205Z 20003KT 27/14 A299 RMK A01 T02700144  RH  046%=      5-min Rain = 0
KES1 131206Z 20003KT 27/14 A299 RMK A01 T02700144  RH  046%=      5-min Rain = 0
KES1 131207Z 20003KT 27/14 A299 RMK A01 T02700144  RH  046%=      5-min Rain = 0
KES1 131208Z 20003KT 27/15 A299 RMK A01 T02710145  RH  046%=      5-min Rain = 0
KES1 131209Z 19003KT 27/15 A299 RMK A01 T02710145  RH  046%=      5-min Rain = 0
KES1 131210Z 20003KT 27/15 A299 RMK A01 T02670145  RH  047%=      5-min Rain = 0
KES1 131211Z 19003KT 26/14 A299 RMK A01 T02630144  RH  048%=      5-min Rain = 0
KES1 131212Z 19003KT 26/14 A299 RMK A01 T02600144  RH  049%=      5-min Rain = 0
KES1 131213Z 19003KT 26/14 A299 RMK A01 T02580144  RH  049%=      5-min Rain = 0
KES1 131214Z 20003KT 26/15 A299 RMK A01 T02580145  RH  050%=      5-min Rain = 0
KES1 131215Z 19003KT 26/15 A2989 RMK A01 T02570145  RH  050%=      5-min Rain = 0
KES1 131216Z 19003KT 26/15 A299 RMK A01 T02560145  RH  050%=      5-min Rain = 0
KES1 131217Z 19004KT 26/15 A299 RMK A01 T02560145  RH  050%=      5-min Rain = 0
KES1 131218Z 19003KT 26/15 A299 RMK A01 T02550145  RH  051%=      5-min Rain = 0
KES1 131219Z 19003KT 25/15 A299 RMK A01 T02540145  RH  051%=      5-min Rain = 0
KES1 131220Z 19003KT 26/15 A299 RMK A01 T02550145  RH  051%=      5-min Rain = 0
KES1 131221Z 19003KT 26/15 A299 RMK A01 T02560145  RH  050%=      5-min Rain = 0
KES1 131222Z 18003KT 26/15 A299 RMK A01 T02570146  RH  050%=      5-min Rain = 0
KES1 131223Z 19003KT 26/15 A299 RMK A01 T02580146  RH  050%=      5-min Rain = 0
KES1 131224Z 19003KT 26/15 A299 RMK A01 T02570146  RH  050%=      5-min Rain = 0
KES1 131225Z 19003KT 26/15 A299 RMK A01 T02560146  RH  050%=      5-min Rain = 0
KES1 131226Z 19004KT 26/15 A299 RMK A01 T02550146  RH  051%=      5-min Rain = 0
KES1 131227Z 19003KT 26/15 A299 RMK A01 T02550146  RH  051%=      5-min Rain = 0
KES1 131228Z 20003KT 25/15 A299 RMK A01 T02540146  RH  051%=      5-min Rain = 0
KES1 131229Z 18004KT 25/15 A299 RMK A01 T02540147  RH  051%=      5-min Rain = 0
KES1 131230Z 18004KT 25/15 A299 RMK A01 T02540147  RH  051%=      5-min Rain = 0
KES1 131231Z 19004KT 26/15 A299 RMK A01 T02550148  RH  052%=      5-min Rain = 0
KES1 131232Z 17004KT 25/15 A299 RMK A01 T02540148  RH  052%=      5-min Rain = 0
KES1 131233Z 17004KT 25/15 A299 RMK A01 T02540148  RH  052%=      5-min Rain = 0
KES1 131234Z 17005KT 25/15 A299 RMK A01 T02540148  RH  052%=      5-min Rain = 0
KES1 131235Z 17005KT 25/15 A299 RMK A01 T02540148  RH  052%=      5-min Rain = 0
KES1 131236Z 16004KT 26/15 A299 RMK A01 T02550148  RH  052%=      5-min Rain = 0
KES1 131237Z 16005KT 26/15 A299 RMK A01 T02550148  RH  052%=      5-min Rain = 0
KES1 131238Z 17005KT 26/15 A299 RMK A01 T02550147  RH  051%=      5-min Rain = 0
KES1 131239Z 16004KT 26/15 A299 RMK A01 T02560148  RH  051%=      5-min Rain = 0
KES1 131240Z 16005KT 26/15 A299 RMK A01 T02570148  RH  051%=      5-min Rain = 0
KES1 131241Z 16005KT 26/15 A299 RMK A01 T02580148  RH  051%=      5-min Rain = 0
KES1 131242Z 16005KT 26/15 A299 RMK A01 T02580148  RH  050%=      5-min Rain = 0
KES1 131243Z 16006KT 26/15 A299 RMK A01 T02590149  RH  050%=      5-min Rain = 0
KES1 131244Z 16005KT 26/15 A299 RMK A01 T02600149  RH  050%=      5-min Rain = 0
KES1 131245Z 16005KT 26/15 A299 RMK A01 T02610149  RH  050%=      5-min Rain = 0
KES1 131246Z 16005KT 26/15 A299 RMK A01 T02610149  RH  050%=      5-min Rain = 0
KES1 131247Z 16005KT 26/15 A299 RMK A01 T02610149  RH  050%=      5-min Rain = 0
KES1 131248Z 16005KT 26/15 A299 RMK A01 T02610149  RH  050%=      5-min Rain = 0
KES1 131249Z 17005KT 26/15 A299 RMK A01 T02610149  RH  050%=      5-min Rain = 0
KES1 131250Z 17004KT 26/15 A299 RMK A01 T02610149  RH  050%=      5-min Rain = 0
KES1 131251Z 17005KT 26/15 A299 RMK A01 T02610149  RH  050%=      5-min Rain = 0
KES1 131252Z 17005KT 26/15 A299 RMK A01 T02610150  RH  050%=      5-min Rain = 0
KES1 131253Z 17006KT 26/15 A299 RMK A01 T02610149  RH  050%=      5-min Rain = 0
KES1 131254Z 17006KT 26/15 A299 RMK A01 T02610149  RH  050%=      5-min Rain = 0
KES1 131255Z 17006KT 26/15 A299 RMK A01 T02620149  RH  050%=      5-min Rain = 0
KES1 131256Z 17006KT 26/15 A299 RMK A01 T02620150  RH  050%=      5-min Rain = 0
KES1 131257Z 18006KT 26/15 A299 RMK A01 T02630149  RH  050%=      5-min Rain = 0
KES1 131258Z 17006KT 27/15 A299 RMK A01 T02650150  RH  049%=      5-min Rain = 0
KES1 131259Z 17006KT 27/15 A299 RMK A01 T02670150  RH  049%=      5-min Rain = 0
KES1 131300Z 18006KT 27/15 A299 RMK A01 T02690151  RH  048%=      5-min Rain = 0
KES1 131301Z 17005KT 27/15 A299 RMK A01 T02710152  RH  048%=      5-min Rain = 0
KES1 131302Z 16004KT 27/15 A299 RMK A01 T02720152  RH  048%=      5-min Rain = 0
KES1 131303Z 16004KT 27/15 A299 RMK A01 T02730152  RH  048%=      5-min Rain = 0
KES1 131304Z 16004KT 27/15 A299 RMK A01 T02740152  RH  047%=      5-min Rain = 0
KES1 131305Z 17004KT 28/15 A299 RMK A01 T02760152  RH  047%=      5-min Rain = 0
KES1 131306Z 17004KT 28/15 A299 RMK A01 T02770152  RH  046%=      5-min Rain = 0
KES1 131307Z 16005KT 28/15 A299 RMK A01 T02790153  RH  046%=      5-min Rain = 0
KES1 131308Z 16004KT 28/15 A299 RMK A01 T02810152  RH  045%=      5-min Rain = 0
KES1 131309Z 16004KT 28/15 A299 RMK A01 T02820152  RH  045%=      5-min Rain = 0
KES1 131310Z 14003KT 28/15 A299 RMK A01 T02830152  RH  045%=      5-min Rain = 0
KES1 131311Z 15003KT 28/15 A299 RMK A01 T02840153  RH  045%=      5-min Rain = 0
KES1 131312Z 14004KT 29/15 A299 RMK A01 T02850153  RH  045%=      5-min Rain = 0
KES1 131313Z 14004KT 29/15 A299 RMK A01 T02850153  RH  045%=      5-min Rain = 0
KES1 131314Z 15003KT 29/15 A299 RMK A01 T02850153  RH  044%=      5-min Rain = 0
KES1 131315Z 15003KT 29/15 A299 RMK A01 T02850153  RH  045%=      5-min Rain = 0
KES1 131316Z 16002KT 29/15 A2991 RMK A01 T02850154  RH  045%=      5-min Rain = 0
KES1 131317Z 15002KT 28/15 A2991 RMK A01 T02840154  RH  045%=      5-min Rain = 0
KES1 131318Z 15002KT 28/15 A2991 RMK A01 T02840154  RH  045%=      5-min Rain = 0
KES1 131319Z 17002KT 28/15 A2991 RMK A01 T02830154  RH  045%=      5-min Rain = 0
KES1 131320Z 19002KT 28/15 A2991 RMK A01 T02830154  RH  045%=      5-min Rain = 0
KES1 131321Z 18002KT 28/15 A2991 RMK A01 T02830154  RH  045%=      5-min Rain = 0
KES1 131322Z 19003KT 28/16 A2991 RMK A01 T02830155  RH  046%=      5-min Rain = 0
KES1 131323Z 18003KT 28/16 A2991 RMK A01 T02830155  RH  046%=      5-min Rain = 0
KES1 131324Z 18004KT 28/16 A2991 RMK A01 T02830155  RH  046%=      5-min Rain = 0
KES1 131325Z 18004KT 28/16 A2991 RMK A01 T02830155  RH  046%=      5-min Rain = 0
KES1 131326Z 18005KT 28/16 A2991 RMK A01 T02830156  RH  046%=      5-min Rain = 0
KES1 131327Z 18005KT 28/16 A2991 RMK A01 T02840155  RH  046%=      5-min Rain = 0
KES1 131328Z 18006KT 29/16 A2991 RMK A01 T02860155  RH  045%=      5-min Rain = 0
KES1 131329Z 19006KT 29/16 A2991 RMK A01 T02870155  RH  044%=      5-min Rain = 0
KES1 131330Z 19006KT 29/16 A2991 RMK A01 T02890155  RH  044%=      5-min Rain = 0
KES1 131331Z 19005KT 29/16 A2991 RMK A01 T02910155  RH  044%=      5-min Rain = 0
KES1 131332Z 20004KT 29/16 A2991 RMK A01 T02920155  RH  044%=      5-min Rain = 0
KES1 131333Z 20004KT 29/16 A2991 RMK A01 T02930156  RH  043%=      5-min Rain = 0
KES1 131334Z 20004KT 29/16 A2991 RMK A01 T02940155  RH  043%=      5-min Rain = 0
KES1 131335Z 20005KT 30/16 A2991 RMK A01 T02960155  RH  042%=      5-min Rain = 0
KES1 131336Z 21005KT 30/16 A2991 RMK A01 T02960155  RH  042%=      5-min Rain = 0
KES1 131337Z 21004KT 30/16 A2991 RMK A01 T02970156  RH  042%=      5-min Rain = 0
KES1 131338Z 20005KT 30/16 A2991 RMK A01 T02980155  RH  042%=      5-min Rain = 0
KES1 131339Z 21004KT 30/16 A2991 RMK A01 T02990156  RH  042%=      5-min Rain = 0
KES1 131340Z 21005KT 30/16 A2991 RMK A01 T02990155  RH  042%=      5-min Rain = 0
KES1 131341Z 20005KT 30/16 A2991 RMK A01 T02990156  RH  042%=      5-min Rain = 0
KES1 131342Z 21005KT 30/16 A2991 RMK A01 T02990156  RH  042%=      5-min Rain = 0
KES1 131343Z 21004KT 30/16 A2991 RMK A01 T02990157  RH  042%=      5-min Rain = 0
KES1 131344Z 21005KT 30/16 A2991 RMK A01 T02980157  RH  042%=      5-min Rain = 0
KES1 131345Z 21005KT 30/16 A2991 RMK A01 T02980157  RH  042%=      5-min Rain = 0
KES1 131346Z 20006KT 30/16 A2991 RMK A01 T02980157  RH  042%=      5-min Rain = 0
KES1 131347Z 20007KT 30/16 A2991 RMK A01 T02990157  RH  042%=      5-min Rain = 0
KES1 131348Z 19006KT 30/16 A2991 RMK A01 T02990157  RH  042%=      5-min Rain = 0
KES1 131349Z 19007KT 30/16 A2991 RMK A01 T03010158  RH  042%=      5-min Rain = 0
KES1 131350Z 19006KT 30/16 A2991 RMK A01 T03020157  RH  041%=      5-min Rain = 0
KES1 131351Z 19005KT 30/16 A2991 RMK A01 T03030158  RH  041%=      5-min Rain = 0
KES1 131352Z 20005KT 31/16 A2991 RMK A01 T03050158  RH  041%=      5-min Rain = 0
KES1 131353Z 19007KT 31/16 A2991 RMK A01 T03070157  RH  040%=      5-min Rain = 0
KES1 131354Z 20006KT 31/16 A2991 RMK A01 T03070157  RH  040%=      5-min Rain = 0
KES1 131355Z 20006KT 31/16 A2991 RMK A01 T03070158  RH  040%=      5-min Rain = 0
KES1 131356Z 19005KT 31/16 A2992 RMK A01 T03080158  RH  040%=      5-min Rain = 0
KES1 131357Z 19005KT 31/16 A2992 RMK A01 T03100159  RH  040%=      5-min Rain = 0
KES1 131358Z 21004KT 31/16 A2992 RMK A01 T03110158  RH  040%=      5-min Rain = 0
KES1 131359Z 21005KT 31/16 A2992 RMK A01 T03120159  RH  040%=      5-min Rain = 0
KES1 131400Z 21006KT 31/16 A2991 RMK A01 T03130159  RH  040%=      5-min Rain = 0
KES1 131401Z 20008KT 31/16 A2991 RMK A01 T03130158  RH  039%=      5-min Rain = 0
KES1 131402Z 21007KT 31/16 A2991 RMK A01 T03140156  RH  039%=      5-min Rain = 0
KES1 131403Z 21008KT 31/16 A2991 RMK A01 T03140157  RH  039%=      5-min Rain = 0
KES1 131404Z 21007KT 32/16 A2991 RMK A01 T03150155  RH  038%=      5-min Rain = 0
KES1 131405Z 21008KT 32/16 A2991 RMK A01 T03150155  RH  038%=      5-min Rain = 0
KES1 131406Z 21006KT 32/16 A2991 RMK A01 T03150155  RH  038%=      5-min Rain = 0
KES1 131407Z 20007KT 32/16 A2991 RMK A01 T03160156  RH  038%=      5-min Rain = 0
KES1 131408Z 21007KT 32/16 A2991 RMK A01 T03160156  RH  038%=      5-min Rain = 0
KES1 131409Z 21007KT 32/16 A2992 RMK A01 T03160157  RH  038%=      5-min Rain = 0
KES1 131410Z 21007KT 31/16 A2992 RMK A01 T03140156  RH  038%=      5-min Rain = 0
KES1 131411Z 20006KT 31/16 A2992 RMK A01 T03130156  RH  039%=      5-min Rain = 0
KES1 131412Z 19006KT 31/16 A2991 RMK A01 T03130157  RH  039%=      5-min Rain = 0
KES1 131413Z 21008KT 31/16 A2991 RMK A01 T03130156  RH  039%=      5-min Rain = 0
KES1 131414Z 22007KT 31/16 A2991 RMK A01 T03120155  RH  039%=      5-min Rain = 0
KES1 131415Z 19006KT 31/16 A2991 RMK A01 T03120156  RH  039%=      5-min Rain = 0
KES1 131416Z 21006KT 31/16 A2991 RMK A01 T03120157  RH  039%=      5-min Rain = 0
KES1 131417Z 19009KT 31/16 A2991 RMK A01 T03120157  RH  039%=      5-min Rain = 0
KES1 131418Z 22008KT 31/16 A2991 RMK A01 T03130157  RH  039%=      5-min Rain = 0
KES1 131419Z 22006KT 31/16 A2991 RMK A01 T03140157  RH  039%=      5-min Rain = 0
KES1 131420Z 21006KT 31/16 A2991 RMK A01 T03140157  RH  039%=      5-min Rain = 0
KES1 131421Z 22006KT 31/16 A2991 RMK A01 T03140158  RH  039%=      5-min Rain = 0
KES1 131422Z 23006KT 32/16 A2991 RMK A01 T03150158  RH  039%=      5-min Rain = 0
KES1 131423Z 23005KT 32/16 A2991 RMK A01 T03160158  RH  039%=      5-min Rain = 0
KES1 131424Z 22006KT 32/16 A2992 RMK A01 T03170158  RH  038%=      5-min Rain = 0
KES1 131425Z 22007KT 32/16 A2992 RMK A01 T03180159  RH  038%=      5-min Rain = 0
KES1 131426Z 23004KT 32/16 A2992 RMK A01 T03190159  RH  038%=      5-min Rain = 0
KES1 131427Z 22005KT 32/16 A2992 RMK A01 T03210160  RH  038%=      5-min Rain = 0
KES1 131428Z 22005KT 32/16 A2992 RMK A01 T03230160  RH  038%=      5-min Rain = 0
KES1 131429Z 19007KT 33/16 A2992 RMK A01 T03250160  RH  037%=      5-min Rain = 0
KES1 131430Z 21005KT 33/16 A2992 RMK A01 T03260159  RH  037%=      5-min Rain = 0
KES1 131431Z 22006KT 33/16 A2992 RMK A01 T03270160  RH  037%=      5-min Rain = 0
KES1 131432Z 22006KT 33/16 A2992 RMK A01 T03280160  RH  036%=      5-min Rain = 0
KES1 131433Z 22005KT 33/16 A2992 RMK A01 T03300161  RH  036%=      5-min Rain = 0
KES1 131434Z 22006KT 33/16 A2992 RMK A01 T03310160  RH  036%=      5-min Rain = 0
KES1 131435Z 21005KT 33/16 A2992 RMK A01 T03300159  RH  036%=      5-min Rain = 0
KES1 131436Z 21005G10KT 33/16 A2992 RMK A01 T03290158  RH  036%=      5-min Rain = 0
KES1 131437Z 22009KT 33/16 A2992 RMK A01 T03290158  RH  036%=      5-min Rain = 0
KES1 131438Z 23005KT 33/16 A2992 RMK A01 T03280157  RH  036%=      5-min Rain = 0
KES1 131439Z 24008KT 33/16 A2992 RMK A01 T03280158  RH  036%=      5-min Rain = 0
KES1 131440Z 23006KT 33/16 A2992 RMK A01 T03300159  RH  036%=      5-min Rain = 0
KES1 131441Z 23006KT 33/16 A2992 RMK A01 T03320159  RH  035%=      5-min Rain = 0
KES1 131442Z 23006KT 33/16 A2992 RMK A01 T03330159  RH  035%=      5-min Rain = 0
KES1 131443Z 23005KT 33/16 A2992 RMK A01 T03340159  RH  035%=      5-min Rain = 0
KES1 131444Z 22005KT 33/16 A2992 RMK A01 T03330158  RH  035%=      5-min Rain = 0
KES1 131445Z 22006KT 33/16 A2992 RMK A01 T03310158  RH  035%=      5-min Rain = 0
KES1 131446Z 23006KT 33/16 A2992 RMK A01 T03310158  RH  036%=      5-min Rain = 0
KES1 131447Z 23006KT 33/16 A2992 RMK A01 T03310157  RH  035%=      5-min Rain = 0
KES1 131448Z 21006KT 33/16 A2992 RMK A01 T03310158  RH  036%=      5-min Rain = 0
KES1 131449Z 22005KT 33/16 A2992 RMK A01 T03310159  RH  036%=      5-min Rain = 0
KES1 131450Z 21005KT 33/16 A2992 RMK A01 T03310158  RH  035%=      5-min Rain = 0
KES1 131451Z 20006KT 33/16 A2992 RMK A01 T03310158  RH  036%=      5-min Rain = 0
KES1 131452Z 21005KT 33/16 A2992 RMK A01 T03320158  RH  035%=      5-min Rain = 0
KES1 131453Z 22006KT 33/16 A2992 RMK A01 T03320159  RH  036%=      5-min Rain = 0
KES1 131454Z 20006KT 33/16 A2992 RMK A01 T03330159  RH  035%=      5-min Rain = 0
KES1 131455Z 20007KT 33/16 A2992 RMK A01 T03340158  RH  035%=      5-min Rain = 0
KES1 131456Z 19005KT 33/16 A2991 RMK A01 T03340159  RH  035%=      5-min Rain = 0
KES1 131457Z 21007KT 34/16 A2991 RMK A01 T03360160  RH  035%=      5-min Rain = 0
KES1 131458Z 21008KT 34/16 A2991 RMK A01 T03380160  RH  034%=      5-min Rain = 0
KES1 131459Z 22007KT 34/16 A2991 RMK A01 T03390160  RH  034%=      5-min Rain = 0
KES1 131500Z 21009KT 34/16 A2991 RMK A01 T03390160  RH  034%=      5-min Rain = 0
KES1 131501Z 20006KT 34/16 A2991 RMK A01 T03390159  RH  034%=      5-min Rain = 0
KES1 131502Z 21006KT 34/16 A2991 RMK A01 T03380159  RH  034%=      5-min Rain = 0
KES1 131503Z 21006KT 34/16 A2991 RMK A01 T03380159  RH  034%=      5-min Rain = 0
KES1 131504Z 24004KT 34/16 A2991 RMK A01 T03380160  RH  034%=      5-min Rain = 0
KES1 131505Z 22005KT 34/16 A2991 RMK A01 T03400162  RH  034%=      5-min Rain = 0
KES1 131506Z 22010KT 34/16 A2991 RMK A01 T03440159  RH  033%=      5-min Rain = 0
KES1 131507Z 23011KT 35/16 A2991 RMK A01 T03460158  RH  032%=      5-min Rain = 0
KES1 131508Z 22012KT 35/16 A2991 RMK A01 T03470157  RH  032%=      5-min Rain = 0
KES1 131509Z 23009KT 35/16 A2991 RMK A01 T03460156  RH  032%=      5-min Rain = 0
KES1 131510Z 23009G14KT 35/16 A2991 RMK A01 T03460157  RH  032%=      5-min Rain = 0
KES1 131511Z 21011KT 35/16 A2991 RMK A01 T03490159  RH  032%=      5-min Rain = 0
KES1 131512Z 21011KT 35/16 A2991 RMK A01 T03500158  RH  032%=      5-min Rain = 0
KES1 131513Z 20009KT 35/16 A2991 RMK A01 T03490158  RH  032%=      5-min Rain = 0
KES1 131514Z 21010KT 35/16 A2991 RMK A01 T03490158  RH  032%=      5-min Rain = 0
KES1 131515Z 19011KT 35/16 A2991 RMK A01 T03500158  RH  032%=      5-min Rain = 0
KES1 131516Z 20010KT 35/16 A2991 RMK A01 T03490158  RH  032%=      5-min Rain = 0
KES1 131517Z 21010KT 35/16 A2991 RMK A01 T03480158  RH  032%=      5-min Rain = 0
KES1 131518Z 20008KT 35/16 A2991 RMK A01 T03480159  RH  033%=      5-min Rain = 0
KES1 131519Z 19009KT 35/16 A2991 RMK A01 T03510159  RH  032%=      5-min Rain = 0
KES1 131520Z 20010KT 35/16 A2991 RMK A01 T03530158  RH  031%=      5-min Rain = 0
KES1 131521Z 21009KT 35/16 A2991 RMK A01 T03530159  RH  032%=      5-min Rain = 0
KES1 131522Z 22010KT 36/16 A2991 RMK A01 T03550159  RH  031%=      5-min Rain = 0
KES1 131523Z 21012KT 36/16 A2991 RMK A01 T03560157  RH  031%=      5-min Rain = 0
KES1 131524Z 21010KT 36/16 A2991 RMK A01 T03550156  RH  031%=      5-min Rain = 0
KES1 131525Z 20011KT 36/16 A2991 RMK A01 T03550156  RH  031%=      5-min Rain = 0
KES1 131526Z 20010KT 36/16 A2991 RMK A01 T03550156  RH  031%=      5-min Rain = 0
KES1 131527Z 21007KT 36/16 A2991 RMK A01 T03550157  RH  031%=      5-min Rain = 0
KES1 131528Z 19009KT 36/16 A2991 RMK A01 T03570159  RH  031%=      5-min Rain = 0
KES1 131529Z 19009KT 36/16 A2991 RMK A01 T03570158  RH  031%=      5-min Rain = 0
KES1 131530Z 20009KT 36/16 A2991 RMK A01 T03570157  RH  031%=      5-min Rain = 0
KES1 131531Z 19009KT 36/16 A2991 RMK A01 T03560158  RH  031%=      5-min Rain = 0
KES1 131532Z 20006KT 36/16 A2991 RMK A01 T03560160  RH  031%=      5-min Rain = 0
KES1 131533Z 20006KT 36/16 A2991 RMK A01 T03590159  RH  031%=      5-min Rain = 0
KES1 131534Z 21007KT 36/16 A2991 RMK A01 T03590160  RH  031%=      5-min Rain = 0
KES1 131535Z 22006KT 36/16 A2991 RMK A01 T03590160  RH  031%=      5-min Rain = 0
KES1 131536Z 19007KT 36/16 A2991 RMK A01 T03610159  RH  030%=      5-min Rain = 0
KES1 131537Z 21008G16KT 36/16 A2991 RMK A01 T03610160  RH  030%=      5-min Rain = 0
KES1 131538Z 20011KT 36/16 A2991 RMK A01 T03620157  RH  030%=      5-min Rain = 0
KES1 131539Z 21007KT 36/16 A2991 RMK A01 T03620155  RH  029%=      5-min Rain = 0
KES1 131540Z 21008KT 36/16 A2991 RMK A01 T03640157  RH  029%=      5-min Rain = 0
KES1 131541Z 21007KT 37/16 A2991 RMK A01 T03670156  RH  029%=      5-min Rain = 0
KES1 131542Z 23009KT 37/16 A2991 RMK A01 T03690156  RH  028%=      5-min Rain = 0
KES1 131543Z 22009KT 37/15 A2991 RMK A01 T03690152  RH  028%=      5-min Rain = 0
KES1 131544Z 23009G14KT 37/15 A2991 RMK A01 T03690152  RH  028%=      5-min Rain = 0
KES1 131545Z 22010KT 37/15 A2991 RMK A01 T03690153  RH  028%=      5-min Rain = 0
KES1 131546Z 22009G14KT 37/15 A2991 RMK A01 T03690154  RH  028%=      5-min Rain = 0
KES1 131547Z 22009G14KT 37/15 A2991 RMK A01 T03690153  RH  028%=      5-min Rain = 0
KES1 131548Z 20011KT 37/15 A2991 RMK A01 T03710151  RH  027%=      5-min Rain = 0
KES1 131549Z 19009KT 37/15 A2991 RMK A01 T03690151  RH  027%=      5-min Rain = 0
KES1 131550Z 22007KT 37/15 A2991 RMK A01 T03680153  RH  028%=      5-min Rain = 0
KES1 131551Z 20010G15KT 37/15 A2991 RMK A01 T03690154  RH  028%=      5-min Rain = 0
KES1 131552Z 20013KT 37/15 A2991 RMK A01 T03700151  RH  027%=      5-min Rain = 0
KES1 131553Z 20012KT 37/15 A2991 RMK A01 T03690153  RH  028%=      5-min Rain = 0
KES1 131554Z 19012KT 37/15 A2991 RMK A01 T03680153  RH  028%=      5-min Rain = 0
KES1 131555Z 20009KT 37/15 A2991 RMK A01 T03680153  RH  028%=      5-min Rain = 0
KES1 131556Z 22009KT 37/15 A2991 RMK A01 T03680154  RH  028%=      5-min Rain = 0
KES1 131557Z 22007KT 37/15 A2991 RMK A01 T03690154  RH  028%=      5-min Rain = 0
KES1 131558Z 19012G17KT 37/15 A2991 RMK A01 T03710153  RH  027%=      5-min Rain = 0
KES1 131559Z 23010KT 37/15 A2991 RMK A01 T03740151  RH  027%=      5-min Rain = 0
KES1 131600Z 23008G13KT 38/15 A2991 RMK A01 T03770153  RH  027%=      5-min Rain = 0
KES1 131601Z 21008KT 38/15 A2991 RMK A01 T03800150  RH  026%=      5-min Rain = 0
KES1 131602Z 23011KT 38/15 A2991 RMK A01 T03820151  RH  026%=      5-min Rain = 0
KES1 131603Z 21010KT 38/15 A2991 RMK A01 T03830150  RH  025%=      5-min Rain = 0
KES1 131604Z 21012KT 38/15 A2991 RMK A01 T03830147  RH  025%=      5-min Rain = 0
KES1 131605Z 20010KT 38/15 A2991 RMK A01 T03820146  RH  025%=      5-min Rain = 0
KES1 131606Z 22009KT 38/15 A2991 RMK A01 T03790145  RH  025%=      5-min Rain = 0
KES1 131607Z 23012KT 38/15 A2991 RMK A01 T03780147  RH  025%=      5-min Rain = 0
KES1 131608Z 21011G16KT 38/15 A2991 RMK A01 T03800147  RH  025%=      5-min Rain = 0
KES1 131609Z 21014KT 38/15 A2991 RMK A01 T03810146  RH  025%=      5-min Rain = 0
KES1 131610Z 20010KT 38/15 A2991 RMK A01 T03780145  RH  025%=      5-min Rain = 0
KES1 131611Z 20011G17KT 38/14 A2991 RMK A01 T03770143  RH  025%=      5-min Rain = 0
KES1 131612Z 21009KT 38/14 A2991 RMK A01 T03790142  RH  024%=      5-min Rain = 0
KES1 131613Z 20010KT 38/14 A2991 RMK A01 T03830141  RH  024%=      5-min Rain = 0
KES1 131614Z 21015G21KT 39/14 A299 RMK A01 T03880140  RH  023%=      5-min Rain = 0
KES1 131615Z 22015KT 39/14 A299 RMK A01 T03880137  RH  023%=      5-min Rain = 0
KES1 131616Z 20014G21KT 39/14 A299 RMK A01 T03850135  RH  023%=      5-min Rain = 0
KES1 131617Z 21013KT 39/14 A299 RMK A01 T03850135  RH  023%=      5-min Rain = 0
KES1 131618Z 20018KT 39/13 A299 RMK A01 T03850133  RH  022%=      5-min Rain = 0
KES1 131619Z 21018G23KT 38/13 A299 RMK A01 T03820133  RH  023%=      5-min Rain = 0
KES1 131620Z 20017G22KT 38/13 A299 RMK A01 T03800132  RH  023%=      5-min Rain = 0
KES1 131621Z 20014G20KT 38/13 A2991 RMK A01 T03800131  RH  023%=      5-min Rain = 0
KES1 131622Z 20014G20KT 38/13 A299 RMK A01 T03800132  RH  023%=      5-min Rain = 0
KES1 131623Z 22018KT 38/13 A2991 RMK A01 T03810132  RH  023%=      5-min Rain = 0
KES1 131624Z 22014KT 38/13 A2991 RMK A01 T03800133  RH  023%=      5-min Rain = 0
KES1 131625Z 23013KT 38/13 A2991 RMK A01 T03800134  RH  023%=      5-min Rain = 0
KES1 131626Z 22009G15KT 38/14 A2991 RMK A01 T03830135  RH  023%=      5-min Rain = 0
KES1 131627Z 22013G19KT 39/14 A2991 RMK A01 T03870137  RH  023%=      5-min Rain = 0
KES1 131628Z 22015KT 39/13 A2991 RMK A01 T03870133  RH  022%=      5-min Rain = 0
KES1 131629Z 22016KT 39/13 A2991 RMK A01 T03860134  RH  022%=      5-min Rain = 0
KES1 131630Z 23013G18KT 39/14 A2991 RMK A01 T03850136  RH  023%=      5-min Rain = 0
KES1 131631Z 23011KT 39/13 A2991 RMK A01 T03860133  RH  022%=      5-min Rain = 0
KES1 131632Z 22010KT 39/14 A2991 RMK A01 T03860135  RH  023%=      5-min Rain = 0
KES1 131633Z 22010KT 39/14 A2991 RMK A01 T03870137  RH  023%=      5-min Rain = 0
KES1 131634Z 21009KT 39/14 A2991 RMK A01 T03900139  RH  023%=      5-min Rain = 0
KES1 131635Z 21010KT 39/14 A2991 RMK A01 T03910138  RH  022%=      5-min Rain = 0
KES1 131636Z 23010G17KT 39/14 A2991 RMK A01 T03930137  RH  022%=      5-min Rain = 0
KES1 131637Z 24014KT 39/13 A2991 RMK A01 T03930133  RH  022%=      5-min Rain = 0
KES1 131638Z 24013KT 39/13 A2991 RMK A01 T03870133  RH  022%=      5-min Rain = 0
KES1 131639Z 24013KT 39/13 A2991 RMK A01 T03860133  RH  022%=      5-min Rain = 0
KES1 131640Z 24011G16KT 39/13 A2991 RMK A01 T03890132  RH  022%=      5-min Rain = 0
KES1 131641Z 22012KT 39/13 A2991 RMK A01 T03900133  RH  022%=      5-min Rain = 0
KES1 131642Z 23010KT 39/14 A2991 RMK A01 T03910135  RH  022%=      5-min Rain = 0
KES1 131643Z 23012KT 40/14 A2991 RMK A01 T03950135  RH  022%=      5-min Rain = 0
KES1 131644Z 22014KT 40/13 A2991 RMK A01 T03950133  RH  021%=      5-min Rain = 0
KES1 131645Z 21015KT 40/13 A2991 RMK A01 T03950134  RH  021%=      5-min Rain = 0
KES1 131646Z 22011KT 39/13 A2991 RMK A01 T03920132  RH  021%=      5-min Rain = 0
KES1 131647Z 22009KT 39/13 A2991 RMK A01 T03890132  RH  022%=      5-min Rain = 0
KES1 131648Z 23013KT 39/13 A2991 RMK A01 T03900130  RH  021%=      5-min Rain = 0
KES1 131649Z 23010KT 39/13 A2991 RMK A01 T03900130  RH  021%=      5-min Rain = 0
KES1 131650Z 22012G17KT 39/13 A2991 RMK A01 T03900131  RH  022%=      5-min Rain = 0
KES1 131651Z 21011KT 40/13 A2991 RMK A01 T03950134  RH  021%=      5-min Rain = 0
KES1 131652Z 21010KT 40/13 A2991 RMK A01 T03960132  RH  021%=      5-min Rain = 0
KES1 131653Z 22011KT 40/13 A2991 RMK A01 T03980126  RH  020%=      5-min Rain = 0
KES1 131654Z 23015G20KT 40/13 A2991 RMK A01 T03980127  RH  020%=      5-min Rain = 0
KES1 131655Z 23016KT 40/13 A2991 RMK A01 T03970126  RH  020%=      5-min Rain = 0
KES1 131656Z 21013KT 40/12 A2991 RMK A01 T03960124  RH  020%=      5-min Rain = 0
KES1 131657Z 22012KT 39/12 A2991 RMK A01 T03940124  RH  020%=      5-min Rain = 0
KES1 131658Z 23015KT 39/13 A2991 RMK A01 T03940125  RH  020%=      5-min Rain = 0
KES1 131659Z 23009G16KT 40/13 A2991 RMK A01 T03960127  RH  020%=      5-min Rain = 0
KES1 131700Z 24010KT 40/13 A2991 RMK A01 T03970127  RH  020%=      5-min Rain = 0
KES1 131701Z 24017KT 40/13 A2991 RMK A01 T03970126  RH  020%=      5-min Rain = 0
KES1 131702Z 22013G19KT 39/13 A2991 RMK A01 T03940126  RH  020%=      5-min Rain = 0
KES1 131703Z 24013G18KT 39/13 A2991 RMK A01 T03940126  RH  020%=      5-min Rain = 0
KES1 131704Z 25013KT 39/13 A2991 RMK A01 T03940128  RH  021%=      5-min Rain = 0
KES1 131705Z 23013KT 39/13 A2991 RMK A01 T03930126  RH  021%=      5-min Rain = 0
KES1 131706Z 24009KT 39/13 A2991 RMK A01 T03940125  RH  020%=      5-min Rain = 0
KES1 131707Z 24009G14KT 40/13 A2991 RMK A01 T03970126  RH  020%=      5-min Rain = 0
KES1 131708Z 25011G16KT 40/13 A2991 RMK A01 T03970126  RH  020%=      5-min Rain = 0
KES1 131709Z 24015KT 40/13 A2991 RMK A01 T03970128  RH  020%=      5-min Rain = 0
KES1 131710Z 25013KT 40/13 A2991 RMK A01 T03970129  RH  020%=      5-min Rain = 0
KES1 131711Z 25011KT 40/13 A2991 RMK A01 T03960130  RH  021%=      5-min Rain = 0
KES1 131712Z 24008KT 40/13 A2991 RMK A01 T03950128  RH  021%=      5-min Rain = 0
KES1 131713Z 24007KT 40/13 A2991 RMK A01 T03950128  RH  021%=      5-min Rain = 0
KES1 131714Z 21008KT 40/13 A2991 RMK A01 T03950128  RH  021%=      5-min Rain = 0
KES1 131715Z 23012KT 40/13 A299 RMK A01 T03970129  RH  021%=      5-min Rain = 0
KES1 131716Z 25016KT 40/13 A2991 RMK A01 T03990132  RH  021%=      5-min Rain = 0
KES1 131717Z 25013KT 40/13 A2991 RMK A01 T03970132  RH  021%=      5-min Rain = 0
KES1 131718Z 25012KT 39/13 A2991 RMK A01 T03940130  RH  021%=      5-min Rain = 0
KES1 131719Z 24009KT 39/13 A299 RMK A01 T03930129  RH  021%=      5-min Rain = 0
KES1 131720Z 21011KT 39/13 A2991 RMK A01 T03930129  RH  021%=      5-min Rain = 0
KES1 131721Z 21012KT 39/13 A2991 RMK A01 T03940129  RH  021%=      5-min Rain = 0
KES1 131722Z 23012KT 39/13 A2991 RMK A01 T03940129  RH  021%=      5-min Rain = 0
KES1 131723Z 24009KT 40/13 A2991 RMK A01 T03950133  RH  021%=      5-min Rain = 0
KES1 131724Z 26008KT 40/14 A2991 RMK A01 T03970135  RH  021%=      5-min Rain = 0
KES1 131725Z 29008KT 40/13 A299 RMK A01 T03990134  RH  021%=      5-min Rain = 0
KES1 131726Z 27008KT 40/13 A299 RMK A01 T03970134  RH  021%=      5-min Rain = 0
KES1 131727Z 24009KT 40/14 A299 RMK A01 T03980135  RH  021%=      5-min Rain = 0
KES1 131728Z 23013G18KT 40/13 A299 RMK A01 T04010134  RH  021%=      5-min Rain = 0
KES1 131729Z 24013KT 40/13 A299 RMK A01 T03990133  RH  021%=      5-min Rain = 0
KES1 131730Z 25007KT 40/13 A299 RMK A01 T03960132  RH  021%=      5-min Rain = 0
KES1 131731Z 26009KT 40/13 A299 RMK A01 T03950133  RH  021%=      5-min Rain = 0
KES1 131732Z 21012KT 39/13 A299 RMK A01 T03940130  RH  021%=      5-min Rain = 0
KES1 131733Z 21008KT 39/13 A299 RMK A01 T03920128  RH  021%=      5-min Rain = 0
KES1 131734Z 19007KT 39/13 A299 RMK A01 T03920128  RH  021%=      5-min Rain = 0
KES1 131735Z 21008KT 39/13 A299 RMK A01 T03940129  RH  021%=      5-min Rain = 0
KES1 131736Z 22015KT 40/13 A299 RMK A01 T04000131  RH  020%=      5-min Rain = 0
KES1 131737Z 21012G17KT 40/13 A299 RMK A01 T04020128  RH  020%=      5-min Rain = 0
KES1 131738Z 21009KT 40/13 A2989 RMK A01 T04000131  RH  020%=      5-min Rain = 0
KES1 131739Z 21011KT 40/13 A2989 RMK A01 T04020132  RH  020%=      5-min Rain = 0
KES1 131740Z 22011KT 40/13 A2989 RMK A01 T04030133  RH  020%=      5-min Rain = 0
KES1 131741Z 22009KT 40/13 A2989 RMK A01 T04010132  RH  020%=      5-min Rain = 0
KES1 131742Z 22007KT 40/13 A2989 RMK A01 T03990132  RH  021%=      5-min Rain = 0
KES1 131743Z 22005KT 40/13 A2989 RMK A01 T03990132  RH  021%=      5-min Rain = 0
KES1 131744Z 19008KT 40/13 A2989 RMK A01 T03990132  RH  021%=      5-min Rain = 0
KES1 131745Z 21008KT 40/13 A2989 RMK A01 T04000132  RH  021%=      5-min Rain = 0
KES1 131746Z 21008KT 40/13 A2989 RMK A01 T04010133  RH  021%=      5-min Rain = 0
KES1 131747Z 19010KT 40/13 A2989 RMK A01 T04030132  RH  020%=      5-min Rain = 0
KES1 131748Z 22008KT 41/13 A2989 RMK A01 T04060133  RH  020%=      5-min Rain = 0
KES1 131749Z 22008KT 41/13 A2989 RMK A01 T04120133  RH  019%=      5-min Rain = 0
KES1 131750Z 23007KT 41/13 A2989 RMK A01 T04130131  RH  019%=      5-min Rain = 0
KES1 131751Z 22009KT 41/13 A2989 RMK A01 T04110131  RH  019%=      5-min Rain = 0
KES1 131752Z 23008KT 41/13 A2989 RMK A01 T04090131  RH  019%=      5-min Rain = 0
KES1 131753Z 23007KT 41/13 A2989 RMK A01 T04080131  RH  019%=      5-min Rain = 0
KES1 131754Z 23008KT 41/13 A2989 RMK A01 T04090132  RH  020%=      5-min Rain = 0
KES1 131755Z 24014KT 41/13 A2989 RMK A01 T04120132  RH  019%=      5-min Rain = 0
KES1 131756Z 24010G16KT 41/13 A2989 RMK A01 T04110131  RH  019%=      5-min Rain = 0
KES1 131757Z 24007KT 41/13 A2989 RMK A01 T04090132  RH  020%=      5-min Rain = 0
KES1 131758Z 23013KT 41/13 A2988 RMK A01 T04080132  RH  020%=      5-min Rain = 0
KES1 131759Z 22013KT 41/13 A2988 RMK A01 T04090130  RH  019%=      5-min Rain = 0
KES1 131800Z 22012KT 41/13 A2988 RMK A01 T04090129  RH  019%=      5-min Rain = 0
KES1 131801Z 22012G18KT 41/13 A2988 RMK A01 T04060128  RH  019%=      5-min Rain = 0
KES1 131802Z 24014KT 41/13 A2988 RMK A01 T04050127  RH  019%=      5-min Rain = 0
KES1 131803Z 23009KT 41/13 A2988 RMK A01 T04070127  RH  019%=      5-min Rain = 0
KES1 131804Z 21010KT 41/13 A2988 RMK A01 T04110128  RH  019%=      5-min Rain = 0
KES1 131805Z 23012KT 41/13 A2988 RMK A01 T04120126  RH  019%=      5-min Rain = 0
KES1 131806Z 22010KT 41/12 A2988 RMK A01 T04080122  RH  018%=      5-min Rain = 0
KES1 131807Z 23011KT 41/12 A2988 RMK A01 T04060124  RH  019%=      5-min Rain = 0
KES1 131808Z 24012KT 41/13 A2988 RMK A01 T04050126  RH  019%=      5-min Rain = 0
KES1 131809Z 22011KT 41/13 A2988 RMK A01 T04060127  RH  019%=      5-min Rain = 0
KES1 131810Z 22009KT 41/13 A2988 RMK A01 T04090130  RH  019%=      5-min Rain = 0
KES1 131811Z 21007KT 41/13 A2988 RMK A01 T04110130  RH  019%=      5-min Rain = 0
KES1 131812Z 20007KT 41/13 A2988 RMK A01 T04090129  RH  019%=      5-min Rain = 0
KES1 131813Z 21007KT 41/13 A2988 RMK A01 T04060128  RH  019%=      5-min Rain = 0
KES1 131814Z 24010G17KT 41/13 A2988 RMK A01 T04070129  RH  019%=      5-min Rain = 0
KES1 131815Z 24014KT 41/13 A2988 RMK A01 T04120127  RH  019%=      5-min Rain = 0
KES1 131816Z 25014KT 41/12 A2988 RMK A01 T04140123  RH  018%=      5-min Rain = 0
KES1 131817Z 25012KT 41/12 A2988 RMK A01 T04100120  RH  018%=      5-min Rain = 0
KES1 131818Z 24009G14KT 41/12 A2988 RMK A01 T04080123  RH  019%=      5-min Rain = 0
KES1 131819Z 23012KT 41/13 A2988 RMK A01 T04100126  RH  019%=      5-min Rain = 0
KES1 131820Z 21009KT 41/13 A2988 RMK A01 T04140129  RH  019%=      5-min Rain = 0
KES1 131821Z 21009KT 41/13 A2988 RMK A01 T04140128  RH  019%=      5-min Rain = 0
KES1 131822Z 21009KT 41/13 A2988 RMK A01 T04110127  RH  019%=      5-min Rain = 0
KES1 131823Z 21007KT 41/13 A2988 RMK A01 T04100127  RH  019%=      5-min Rain = 0
KES1 131824Z 25006G12KT 41/13 A2987 RMK A01 T04080128  RH  019%=      5-min Rain = 0
KES1 131825Z 22011KT 41/13 A2987 RMK A01 T04110129  RH  019%=      5-min Rain = 0
KES1 131826Z 21009KT 41/13 A2987 RMK A01 T04130128  RH  019%=      5-min Rain = 0
KES1 131827Z 24013KT 41/13 A2987 RMK A01 T04130127  RH  019%=      5-min Rain = 0
KES1 131828Z 24013KT 41/13 A2987 RMK A01 T04140125  RH  018%=      5-min Rain = 0
KES1 131829Z 23012KT 41/12 A2987 RMK A01 T04130124  RH  018%=      5-min Rain = 0
KES1 131830Z 21011KT 41/12 A2987 RMK A01 T04120124  RH  018%=      5-min Rain = 0
KES1 131831Z 21008KT 41/12 A2987 RMK A01 T04120121  RH  018%=      5-min Rain = 0
KES1 131832Z 20007KT 41/12 A2987 RMK A01 T04100123  RH  018%=      5-min Rain = 0
KES1 131833Z 21010KT 42/13 A2987 RMK A01 T04160127  RH  018%=      5-min Rain = 0
KES1 131834Z 22010KT 42/13 A2987 RMK A01 T04210129  RH  018%=      5-min Rain = 0
KES1 131835Z 22009KT 42/13 A2987 RMK A01 T04200128  RH  018%=      5-min Rain = 0
KES1 131836Z 20006KT 42/13 A2987 RMK A01 T04160127  RH  018%=      5-min Rain = 0
KES1 131837Z 22006KT 41/13 A2987 RMK A01 T04140129  RH  019%=      5-min Rain = 0
KES1 131838Z 20010KT 42/13 A2987 RMK A01 T04150129  RH  019%=      5-min Rain = 0
KES1 131839Z 20006G11KT 41/13 A2987 RMK A01 T04130131  RH  019%=      5-min Rain = 0
KES1 131840Z 21013G18KT 42/13 A2987 RMK A01 T04170134  RH  019%=      5-min Rain = 0
KES1 131841Z 21015KT 42/13 A2987 RMK A01 T04180133  RH  019%=      5-min Rain = 0
KES1 131842Z 20012KT 41/13 A2987 RMK A01 T04110132  RH  019%=      5-min Rain = 0
KES1 131843Z 20012KT 41/13 A2987 RMK A01 T04100133  RH  020%=      5-min Rain = 0
KES1 131844Z 20010KT 41/13 A2986 RMK A01 T04100132  RH  020%=      5-min Rain = 0
KES1 131845Z 22005KT 41/13 A2986 RMK A01 T04080132  RH  020%=      5-min Rain = 0
KES1 131846Z 23003KT 41/13 A2986 RMK A01 T04060132  RH  020%=      5-min Rain = 0
KES1 131847Z 22004KT 41/13 A2986 RMK A01 T04060132  RH  020%=      5-min Rain = 0
KES1 131848Z 22006KT 41/14 A2986 RMK A01 T04090135  RH  020%=      5-min Rain = 0
KES1 131849Z 23012KT 42/13 A2986 RMK A01 T04160132  RH  019%=      5-min Rain = 0
KES1 131850Z 23011KT 42/13 A2986 RMK A01 T04190127  RH  018%=      5-min Rain = 0
KES1 131851Z 24011KT 42/13 A2986 RMK A01 T04160127  RH  018%=      5-min Rain = 0
KES1 131852Z 23010KT 42/13 A2986 RMK A01 T04190129  RH  018%=      5-min Rain = 0
KES1 131853Z 23009KT 42/13 A2986 RMK A01 T04210129  RH  018%=      5-min Rain = 0
KES1 131854Z 20007KT 42/13 A2986 RMK A01 T04210129  RH  018%=      5-min Rain = 0
KES1 131855Z 24010KT 42/13 A2986 RMK A01 T04220129  RH  018%=      5-min Rain = 0
KES1 131856Z 23009KT 42/13 A2986 RMK A01 T04190128  RH  018%=      5-min Rain = 0
KES1 131857Z 22007KT 42/13 A2986 RMK A01 T04190127  RH  018%=      5-min Rain = 0
KES1 131858Z 20008KT 42/13 A2986 RMK A01 T04180127  RH  018%=      5-min Rain = 0
KES1 131859Z 18010KT 42/13 A2986 RMK A01 T04170128  RH  018%=      5-min Rain = 0
KES1 131900Z 18009KT 42/13 A2985 RMK A01 T04160128  RH  018%=      5-min Rain = 0
KES1 131901Z 19011KT 42/13 A2985 RMK A01 T04170130  RH  019%=      5-min Rain = 0
KES1 131902Z 19007KT 41/13 A2985 RMK A01 T04130129  RH  019%=      5-min Rain = 0
KES1 131903Z 18005KT 41/13 A2985 RMK A01 T04100130  RH  019%=      5-min Rain = 0
KES1 131904Z 19005KT 41/13 A2985 RMK A01 T04120131  RH  019%=      5-min Rain = 0
KES1 131905Z 17007KT 42/13 A2985 RMK A01 T04190132  RH  019%=      5-min Rain = 0
KES1 131906Z 17006G11KT 42/13 A2985 RMK A01 T04210131  RH  018%=      5-min Rain = 0
KES1 131907Z 18012G17KT 42/13 A2985 RMK A01 T04220131  RH  018%=      5-min Rain = 0
KES1 131908Z 18012KT 42/13 A2985 RMK A01 T04220129  RH  018%=      5-min Rain = 0
KES1 131909Z 18009KT 42/13 A2985 RMK A01 T04190129  RH  018%=      5-min Rain = 0
KES1 131910Z 18009KT 42/13 A2985 RMK A01 T04160127  RH  018%=      5-min Rain = 0
KES1 131911Z 23009KT 42/13 A2985 RMK A01 T04160127  RH  018%=      5-min Rain = 0
KES1 131912Z 21009G14KT 42/13 A2985 RMK A01 T04200129  RH  018%=      5-min Rain = 0
KES1 131913Z 19008KT 43/13 A2985 RMK A01 T04260128  RH  017%=      5-min Rain = 0
KES1 131914Z 19007G12KT 43/13 A2985 RMK A01 T04270127  RH  017%=      5-min Rain = 0
KES1 131915Z 18011G16KT 43/13 A2984 RMK A01 T04270125  RH  017%=      5-min Rain = 0
KES1 131916Z 18010KT 42/12 A2984 RMK A01 T04240124  RH  017%=      5-min Rain = 0
KES1 131917Z 22008KT 42/12 A2985 RMK A01 T04230123  RH  017%=      5-min Rain = 0
KES1 131918Z 23007KT 43/12 A2985 RMK A01 T04250122  RH  017%=      5-min Rain = 0
KES1 131919Z 21009KT 43/12 A2985 RMK A01 T04260123  RH  017%=      5-min Rain = 0
KES1 131920Z 20012G20KT 43/13 A2984 RMK A01 T04260127  RH  017%=      5-min Rain = 0
KES1 131921Z 19015KT 42/13 A2984 RMK A01 T04240125  RH  017%=      5-min Rain = 0
KES1 131922Z 22012G17KT 42/13 A2984 RMK A01 T04220126  RH  018%=      5-min Rain = 0
KES1 131923Z 22014KT 42/13 A2985 RMK A01 T04240126  RH  017%=      5-min Rain = 0
KES1 131924Z 21012KT 42/13 A2985 RMK A01 T04240129  RH  018%=      5-min Rain = 0
KES1 131925Z 22010KT 42/13 A2985 RMK A01 T04240127  RH  018%=      5-min Rain = 0
KES1 131926Z 20007KT 42/13 A2984 RMK A01 T04220127  RH  018%=      5-min Rain = 0
KES1 131927Z 20006KT 42/13 A2984 RMK A01 T04230128  RH  018%=      5-min Rain = 0
KES1 131928Z 23006KT 42/13 A2984 RMK A01 T04240128  RH  018%=      5-min Rain = 0
KES1 131929Z 22008KT 42/13 A2984 RMK A01 T04240129  RH  018%=      5-min Rain = 0
KES1 131930Z 24011KT 43/13 A2984 RMK A01 T04260127  RH  017%=      5-min Rain = 0
KES1 131931Z 25009KT 42/13 A2984 RMK A01 T04240126  RH  017%=      5-min Rain = 0
KES1 131932Z 26007KT 42/13 A2984 RMK A01 T04210125  RH  018%=      5-min Rain = 0
KES1 131933Z 27004KT 42/13 A2984 RMK A01 T04190126  RH  018%=      5-min Rain = 0
KES1 131934Z 24007KT 42/13 A2984 RMK A01 T04190127  RH  018%=      5-min Rain = 0
KES1 131935Z 20011KT 42/13 A2984 RMK A01 T04230129  RH  018%=      5-min Rain = 0
KES1 131936Z 21013KT 42/13 A2984 RMK A01 T04240129  RH  018%=      5-min Rain = 0
KES1 131937Z 21013G18KT 42/13 A2984 RMK A01 T04230129  RH  018%=      5-min Rain = 0
KES1 131938Z 21011KT 43/13 A2984 RMK A01 T04250127  RH  017%=      5-min Rain = 0
KES1 131939Z 18009KT 43/13 A2983 RMK A01 T04250127  RH  017%=      5-min Rain = 0
KES1 131940Z 18011KT 43/13 A2983 RMK A01 T04270129  RH  017%=      5-min Rain = 0
KES1 131941Z 19009KT 43/13 A2983 RMK A01 T04290128  RH  017%=      5-min Rain = 0
KES1 131942Z 20010KT 43/13 A2983 RMK A01 T04290127  RH  017%=      5-min Rain = 0
KES1 131943Z 23012G17KT 43/13 A2983 RMK A01 T04280128  RH  017%=      5-min Rain = 0
KES1 131944Z 23014KT 43/13 A2983 RMK A01 T04280126  RH  017%=      5-min Rain = 0
KES1 131945Z 20010KT 43/13 A2983 RMK A01 T04280126  RH  017%=      5-min Rain = 0
KES1 131946Z 18011KT 43/13 A2983 RMK A01 T04290125  RH  017%=      5-min Rain = 0
KES1 131947Z 17009G15KT 43/12 A2983 RMK A01 T04260123  RH  017%=      5-min Rain = 0
KES1 131948Z 18013KT 43/12 A2983 RMK A01 T04260124  RH  017%=      5-min Rain = 0
KES1 131949Z 19007KT 43/12 A2983 RMK A01 T04260124  RH  017%=      5-min Rain = 0
KES1 131950Z 17008KT 43/13 A2983 RMK A01 T04250125  RH  017%=      5-min Rain = 0
KES1 131951Z 17011G16KT 43/13 A2983 RMK A01 T04270125  RH  017%=      5-min Rain = 0
KES1 131952Z 17010KT 43/13 A2983 RMK A01 T04290125  RH  017%=      5-min Rain = 0
KES1 131953Z 19011KT 43/13 A2983 RMK A01 T04290126  RH  017%=      5-min Rain = 0
KES1 131954Z 20014G20KT 43/13 A2983 RMK A01 T04270125  RH  017%=      5-min Rain = 0
KES1 131955Z 22011KT 42/13 A2983 RMK A01 T04230126  RH  017%=      5-min Rain = 0
KES1 131956Z 21009KT 42/13 A2983 RMK A01 T04220125  RH  018%=      5-min Rain = 0
KES1 131957Z 22012KT 42/13 A2983 RMK A01 T04230125  RH  017%=      5-min Rain = 0
KES1 131958Z 22012KT 43/12 A2983 RMK A01 T04250124  RH  017%=      5-min Rain = 0
KES1 131959Z 21011KT 43/12 A2983 RMK A01 T04250124  RH  017%=      5-min Rain = 0
KES1 132000Z 21011KT 43/13 A2983 RMK A01 T04260125  RH  017%=      5-min Rain = 0
KES1 132001Z 19010KT 43/12 A2983 RMK A01 T04270124  RH  017%=      5-min Rain = 0
KES1 132002Z 19005KT 43/12 A2983 RMK A01 T04250124  RH  017%=      5-min Rain = 0
KES1 132003Z 22007KT 42/13 A2983 RMK A01 T04220125  RH  018%=      5-min Rain = 0
KES1 132004Z 19005KT 42/12 A2983 RMK A01 T04240123  RH  017%=      5-min Rain = 0
KES1 132005Z 22005KT 43/12 A2983 RMK A01 T04250124  RH  017%=      5-min Rain = 0
KES1 132006Z 22002KT 42/12 A2983 RMK A01 T04240122  RH  017%=      5-min Rain = 0
KES1 132007Z 22002KT 42/12 A2983 RMK A01 T04230123  RH  017%=      5-min Rain = 0
KES1 132008Z 19003KT 42/12 A2983 RMK A01 T04230123  RH  017%=      5-min Rain = 0
KES1 132009Z 17007KT 42/12 A2982 RMK A01 T04240123  RH  017%=      5-min Rain = 0
KES1 132010Z 22009KT 43/12 A2982 RMK A01 T04290120  RH  016%=      5-min Rain = 0
KES1 132011Z 19007KT 44/12 A2982 RMK A01 T04350117  RH  016%=      5-min Rain = 0
KES1 132012Z 20006KT 44/12 A2982 RMK A01 T04360117  RH  015%=      5-min Rain = 0
KES1 132013Z 20012KT 44/12 A2982 RMK A01 T04370117  RH  015%=      5-min Rain = 0
KES1 132014Z 21013KT 43/12 A2982 RMK A01 T04340116  RH  015%=      5-min Rain = 0
KES1 132015Z 20012KT 43/12 A2982 RMK A01 T04300116  RH  016%=      5-min Rain = 0
KES1 132016Z 19010G15KT 43/12 A2982 RMK A01 T04260118  RH  016%=      5-min Rain = 0
KES1 132017Z 17011KT 42/12 A2982 RMK A01 T04240119  RH  017%=      5-min Rain = 0
KES1 132018Z 19012G17KT 43/12 A2982 RMK A01 T04260120  RH  016%=      5-min Rain = 0
KES1 132019Z 21011KT 43/12 A2982 RMK A01 T04290120  RH  016%=      5-min Rain = 0
KES1 132020Z 20007KT 43/12 A2982 RMK A01 T04270120  RH  016%=      5-min Rain = 0
KES1 132021Z 18010G15KT 43/12 A2982 RMK A01 T04290120  RH  016%=      5-min Rain = 0
KES1 132022Z 20010KT 43/12 A2982 RMK A01 T04330122  RH  016%=      5-min Rain = 0
KES1 132023Z 18007KT 43/12 A2982 RMK A01 T04340121  RH  016%=      5-min Rain = 0
KES1 132024Z 21014KT 43/12 A2982 RMK A01 T04320122  RH  016%=      5-min Rain = 0
KES1 132025Z 21009G15KT 43/12 A2982 RMK A01 T04340123  RH  016%=      5-min Rain = 0
KES1 132026Z 19009KT 43/12 A2982 RMK A01 T04330121  RH  016%=      5-min Rain = 0
KES1 132027Z 20009KT 43/12 A2982 RMK A01 T04320122  RH  016%=      5-min Rain = 0
KES1 132028Z 19011G16KT 43/12 A2982 RMK A01 T04330120  RH  016%=      5-min Rain = 0
KES1 132029Z 19009KT 43/12 A2982 RMK A01 T04330120  RH  016%=      5-min Rain = 0
KES1 132030Z 21009KT 43/12 A2982 RMK A01 T04310120  RH  016%=      5-min Rain = 0
KES1 132031Z 19007KT 43/12 A2981 RMK A01 T04270120  RH  016%=      5-min Rain = 0
KES1 132032Z 19008KT 43/12 A2981 RMK A01 T04280120  RH  016%=      5-min Rain = 0
KES1 132033Z 16008KT 43/12 A2981 RMK A01 T04290121  RH  016%=      5-min Rain = 0
KES1 132034Z 14007KT 43/12 A2981 RMK A01 T04310121  RH  016%=      5-min Rain = 0
KES1 132035Z 16006KT 43/12 A2981 RMK A01 T04310121  RH  016%=      5-min Rain = 0
KES1 132036Z 19005KT 43/12 A2981 RMK A01 T04310121  RH  016%=      5-min Rain = 0
KES1 132037Z 19011KT 43/12 A2981 RMK A01 T04340123  RH  016%=      5-min Rain = 0
KES1 132038Z 19009KT 44/12 A2981 RMK A01 T04360123  RH  016%=      5-min Rain = 0
KES1 132039Z 22013G18KT 43/12 A2981 RMK A01 T04340123  RH  016%=      5-min Rain = 0
KES1 132040Z 23009KT 43/12 A2981 RMK A01 T04330123  RH  016%=      5-min Rain = 0
KES1 132041Z 23009KT 43/12 A2981 RMK A01 T04320123  RH  016%=      5-min Rain = 0
KES1 132042Z 24013KT 43/12 A2981 RMK A01 T04340122  RH  016%=      5-min Rain = 0
KES1 132043Z 24010KT 43/12 A2981 RMK A01 T04340121  RH  016%=      5-min Rain = 0
KES1 132044Z 24008KT 43/12 A2981 RMK A01 T04330121  RH  016%=      5-min Rain = 0
KES1 132045Z 22006KT 43/12 A2981 RMK A01 T04320120  RH  016%=      5-min Rain = 0
KES1 132046Z 22011KT 43/12 A2981 RMK A01 T04330121  RH  016%=      5-min Rain = 0
KES1 132047Z 23009KT 43/12 A2981 RMK A01 T04340122  RH  016%=      5-min Rain = 0
KES1 132048Z 25008KT 44/12 A2981 RMK A01 T04350121  RH  016%=      5-min Rain = 0
KES1 132049Z 24011KT 43/12 A2981 RMK A01 T04330121  RH  016%=      5-min Rain = 0
KES1 132050Z 23010KT 43/12 A2981 RMK A01 T04310121  RH  016%=      5-min Rain = 0
KES1 132051Z 23009KT 43/12 A2981 RMK A01 T04300121  RH  016%=      5-min Rain = 0
KES1 132052Z 25007KT 43/12 A2981 RMK A01 T04300121  RH  016%=      5-min Rain = 0
KES1 132053Z 25008KT 43/12 A298 RMK A01 T04300122  RH  016%=      5-min Rain = 0
KES1 132054Z 23010KT 43/12 A298 RMK A01 T04330123  RH  016%=      5-min Rain = 0
KES1 132055Z 21013KT 44/12 A298 RMK A01 T04380123  RH  016%=      5-min Rain = 0
KES1 132056Z 20008KT 44/12 A298 RMK A01 T04370122  RH  016%=      5-min Rain = 0
KES1 132057Z 18005KT 43/12 A298 RMK A01 T04330120  RH  016%=      5-min Rain = 0
KES1 132058Z 17007KT 43/12 A298 RMK A01 T04320120  RH  016%=      5-min Rain = 0
KES1 132059Z 15005KT 44/12 A298 RMK A01 T04350121  RH  016%=      5-min Rain = 0
KES1 132100Z 18012G17KT 44/12 A298 RMK A01 T04390122  RH  016%=      5-min Rain = 0
KES1 132101Z 18008KT 44/12 A298 RMK A01 T04390122  RH  016%=      5-min Rain = 0
KES1 132102Z 20008KT 44/12 A298 RMK A01 T04420123  RH  016%=      5-min Rain = 0
KES1 132103Z 19009KT 44/12 A298 RMK A01 T04420122  RH  015%=      5-min Rain = 0
KES1 132104Z 22009KT 44/12 A298 RMK A01 T04430123  RH  015%=      5-min Rain = 0
KES1 132105Z 24014KT 44/12 A298 RMK A01 T04440122  RH  015%=      5-min Rain = 0
KES1 132106Z 24010KT 44/12 A298 RMK A01 T04400121  RH  016%=      5-min Rain = 0
KES1 132107Z 23007KT 44/12 A298 RMK A01 T04370122  RH  016%=      5-min Rain = 0
KES1 132108Z 21010KT 44/12 A298 RMK A01 T04400123  RH  016%=      5-min Rain = 0
KES1 132109Z 22007KT 44/12 A298 RMK A01 T04420122  RH  015%=      5-min Rain = 0
KES1 132110Z 20009KT 44/12 A298 RMK A01 T04420123  RH  015%=      5-min Rain = 0
KES1 132111Z 20009G14KT 44/13 A2979 RMK A01 T04440126  RH  016%=      5-min Rain = 0
KES1 132112Z 22017G25KT 44/13 A2979 RMK A01 T04440129  RH  016%=      5-min Rain = 0
KES1 132113Z 27018G24KT 44/13 A2979 RMK A01 T04440130  RH  016%=      5-min Rain = 0
KES1 132114Z 28014KT 44/13 A298 RMK A01 T04440132  RH  016%=      5-min Rain = 0
KES1 132115Z 27014KT 44/14 A298 RMK A01 T04430135  RH  017%=      5-min Rain = 0
KES1 132116Z 26014KT 44/13 A298 RMK A01 T04410134  RH  017%=      5-min Rain = 0
KES1 132117Z 26012KT 44/13 A298 RMK A01 T04380134  RH  017%=      5-min Rain = 0
KES1 132118Z 27015KT 44/13 A298 RMK A01 T04370133  RH  017%=      5-min Rain = 0
KES1 132119Z 27016G21KT 44/13 A298 RMK A01 T04380132  RH  017%=      5-min Rain = 0
KES1 132120Z 27015KT 44/13 A298 RMK A01 T04370132  RH  017%=      5-min Rain = 0
KES1 132121Z 27009KT 44/13 A298 RMK A01 T04360133  RH  017%=      5-min Rain = 0
KES1 132122Z 29011KT 44/13 A298 RMK A01 T04380133  RH  017%=      5-min Rain = 0
KES1 132123Z 29008KT 44/13 A298 RMK A01 T04380133  RH  017%=      5-min Rain = 0
KES1 132124Z 30007KT 44/13 A298 RMK A01 T04390133  RH  017%=      5-min Rain = 0
KES1 132125Z 29011KT 44/13 A298 RMK A01 T04390134  RH  017%=      5-min Rain = 0
KES1 132126Z 30013KT 44/13 A298 RMK A01 T04390133  RH  017%=      5-min Rain = 0
KES1 132127Z 31012KT 44/13 A298 RMK A01 T04380133  RH  017%=      5-min Rain = 0
KES1 132128Z 32011KT 44/13 A298 RMK A01 T04390132  RH  017%=      5-min Rain = 0
KES1 132129Z 31012KT 44/13 A298 RMK A01 T04400131  RH  017%=      5-min Rain = 0
KES1 132130Z 31011KT 44/13 A298 RMK A01 T04390131  RH  017%=      5-min Rain = 0
KES1 132131Z 30010KT 44/13 A298 RMK A01 T04380132  RH  017%=      5-min Rain = 0
KES1 132132Z 31009KT 44/13 A298 RMK A01 T04380133  RH  017%=      5-min Rain = 0
KES1 132133Z 31005KT 44/13 A298 RMK A01 T04400131  RH  016%=      5-min Rain = 0
KES1 132134Z 32008KT 44/13 A298 RMK A01 T04410131  RH  016%=      5-min Rain = 0
KES1 132135Z 36005KT 44/13 A298 RMK A01 T04400128  RH  016%=      5-min Rain = 0
KES1 132136Z 34005KT 44/13 A298 RMK A01 T04370128  RH  016%=      5-min Rain = 0
KES1 132137Z 32008KT 44/13 A298 RMK A01 T04350129  RH  017%=      5-min Rain = 0
KES1 132138Z 30010KT 44/13 A298 RMK A01 T04360131  RH  017%=      5-min Rain = 0
KES1 132139Z 32009KT 44/13 A298 RMK A01 T04380131  RH  017%=      5-min Rain = 0
KES1 132140Z 33009KT 44/13 A298 RMK A01 T04360130  RH  017%=      5-min Rain = 0
KES1 132141Z 34009KT 43/13 A298 RMK A01 T04320128  RH  017%=      5-min Rain = 0
KES1 132142Z 33007KT 43/13 A298 RMK A01 T04300129  RH  017%=      5-min Rain = 0
KES1 132143Z 29008KT 43/13 A298 RMK A01 T04310130  RH  017%=      5-min Rain = 0
KES1 132144Z 29007KT 43/13 A2979 RMK A01 T04340128  RH  017%=      5-min Rain = 0
KES1 132145Z 29005KT 44/13 A2979 RMK A01 T04370126  RH  016%=      5-min Rain = 0
KES1 132146Z 30003KT 44/13 A2979 RMK A01 T04370126  RH  016%=      5-min Rain = 0
KES1 132147Z 31008KT 44/13 A2979 RMK A01 T04370128  RH  016%=      5-min Rain = 0
KES1 132148Z 31009KT 44/13 A2979 RMK A01 T04380129  RH  016%=      5-min Rain = 0
KES1 132149Z 30009KT 44/13 A2979 RMK A01 T04390129  RH  016%=      5-min Rain = 0
KES1 132150Z 29010KT 44/13 A2979 RMK A01 T04410131  RH  016%=      5-min Rain = 0
KES1 132151Z 26010KT 44/13 A2979 RMK A01 T04430129  RH  016%=      5-min Rain = 0
KES1 132152Z 27010KT 44/13 A2979 RMK A01 T04440128  RH  016%=      5-min Rain = 0
KES1 132153Z 28009KT 44/13 A2979 RMK A01 T04430128  RH  016%=      5-min Rain = 0
KES1 132154Z 28008KT 44/13 A2979 RMK A01 T04410127  RH  016%=      5-min Rain = 0
KES1 132155Z 27006KT 44/13 A2979 RMK A01 T04390126  RH  016%=      5-min Rain = 0
KES1 132156Z 30007KT 44/13 A2979 RMK A01 T04360127  RH  016%=      5-min Rain = 0
KES1 132157Z 29011KT 44/13 A2979 RMK A01 T04380129  RH  016%=      5-min Rain = 0
KES1 132158Z 28014KT 44/13 A2979 RMK A01 T04400128  RH  016%=      5-min Rain = 0
KES1 132159Z 28011KT 44/13 A2979 RMK A01 T04380127  RH  016%=      5-min Rain = 0
KES1 132200Z 27007KT 44/13 A2979 RMK A01 T04370128  RH  016%=      5-min Rain = 0
KES1 132201Z 28010KT 44/13 A298 RMK A01 T04390127  RH  016%=      5-min Rain = 0
KES1 132202Z 28008KT 44/13 A298 RMK A01 T04380126  RH  016%=      5-min Rain = 0
KES1 132203Z 29008KT 43/13 A2979 RMK A01 T04340126  RH  017%=      5-min Rain = 0
KES1 132204Z 30006KT 43/13 A2979 RMK A01 T04330127  RH  017%=      5-min Rain = 0
KES1 132205Z 30008KT 44/13 A2979 RMK A01 T04370128  RH  016%=      5-min Rain = 0
KES1 132206Z 31012KT 44/13 A2979 RMK A01 T04380128  RH  016%=      5-min Rain = 0
KES1 132207Z 32008KT 44/13 A2979 RMK A01 T04370127  RH  016%=      5-min Rain = 0
KES1 132208Z 32004KT 43/13 A2979 RMK A01 T04330125  RH  016%=      5-min Rain = 0
KES1 132209Z 32010KT 43/13 A2979 RMK A01 T04300126  RH  017%=      5-min Rain = 0
KES1 132210Z 33008KT 43/13 A2979 RMK A01 T04320126  RH  017%=      5-min Rain = 0
KES1 132211Z 30008KT 43/13 A2979 RMK A01 T04320128  RH  017%=      5-min Rain = 0
KES1 132212Z 30012KT 44/13 A2979 RMK A01 T04360128  RH  017%=      5-min Rain = 0
KES1 132213Z 29012KT 44/13 A2979 RMK A01 T04370128  RH  016%=      5-min Rain = 0
KES1 132214Z 31013KT 44/13 A2979 RMK A01 T04370130  RH  017%=      5-min Rain = 0
KES1 132215Z 31011KT 44/13 A2979 RMK A01 T04380131  RH  017%=      5-min Rain = 0
KES1 132216Z 31013KT 44/13 A2979 RMK A01 T04390131  RH  017%=      5-min Rain = 0
KES1 132217Z 31013KT 44/13 A2979 RMK A01 T04390131  RH  017%=      5-min Rain = 0
KES1 132218Z 31012KT 44/13 A2979 RMK A01 T04390132  RH  017%=      5-min Rain = 0
KES1 132219Z 31011KT 44/13 A2979 RMK A01 T04390132  RH  017%=      5-min Rain = 0
KES1 132220Z 31008KT 44/13 A2979 RMK A01 T04380132  RH  017%=      5-min Rain = 0
KES1 132221Z 31011KT 44/13 A2979 RMK A01 T04370132  RH  017%=      5-min Rain = 0
KES1 132222Z 30010KT 44/13 A2979 RMK A01 T04370132  RH  017%=      5-min Rain = 0
KES1 132223Z 30012KT 44/13 A2979 RMK A01 T04380133  RH  017%=      5-min Rain = 0
KES1 132224Z 31009KT 44/13 A2979 RMK A01 T04370132  RH  017%=      5-min Rain = 0
KES1 132225Z 31009KT 44/13 A2979 RMK A01 T04360131  RH  017%=      5-min Rain = 0
KES1 132226Z 29011KT 44/13 A2979 RMK A01 T04360132  RH  017%=      5-min Rain = 0
KES1 132227Z 29009KT 44/13 A2979 RMK A01 T04370133  RH  017%=      5-min Rain = 0
KES1 132228Z 30010KT 44/13 A2979 RMK A01 T04360132  RH  017%=      5-min Rain = 0
KES1 132229Z 29009KT 44/13 A2979 RMK A01 T04360134  RH  017%=      5-min Rain = 0
KES1 132230Z 28008KT 44/14 A2979 RMK A01 T04350136  RH  018%=      5-min Rain = 0
KES1 132231Z 28009KT 44/14 A2979 RMK A01 T04370136  RH  017%=      5-min Rain = 0
KES1 132232Z 30013KT 44/14 A2979 RMK A01 T04400138  RH  017%=      5-min Rain = 0
KES1 132233Z 29011KT 44/14 A2979 RMK A01 T04380138  RH  018%=      5-min Rain = 0
KES1 132234Z 30011KT 44/14 A2979 RMK A01 T04390137  RH  017%=      5-min Rain = 0
KES1 132235Z 29008KT 44/14 A2979 RMK A01 T04370137  RH  017%=      5-min Rain = 0
KES1 132236Z 29012KT 43/14 A2979 RMK A01 T04340138  RH  018%=      5-min Rain = 0
KES1 132237Z 28012KT 43/14 A2979 RMK A01 T04330136  RH  018%=      5-min Rain = 0
KES1 132238Z 29011KT 43/14 A2979 RMK A01 T04300135  RH  018%=      5-min Rain = 0
KES1 132239Z 30010KT 43/14 A2979 RMK A01 T04300137  RH  018%=      5-min Rain = 0
KES1 132240Z 29007KT 43/14 A2979 RMK A01 T04300138  RH  018%=      5-min Rain = 0
KES1 132241Z 29011KT 43/14 A2979 RMK A01 T04330140  RH  018%=      5-min Rain = 0
KES1 132242Z 30012KT 43/14 A2979 RMK A01 T04340139  RH  018%=      5-min Rain = 0
KES1 132243Z 30011KT 43/14 A2979 RMK A01 T04320137  RH  018%=      5-min Rain = 0
KES1 132244Z 31009G14KT 43/14 A2979 RMK A01 T04310137  RH  018%=      5-min Rain = 0
KES1 132245Z 30012KT 43/14 A2979 RMK A01 T04320138  RH  018%=      5-min Rain = 0
KES1 132246Z 29011KT 43/14 A2979 RMK A01 T04320137  RH  018%=      5-min Rain = 0
KES1 132247Z 29011KT 43/14 A2979 RMK A01 T04320137  RH  018%=      5-min Rain = 0
KES1 132248Z 28010KT 43/14 A2979 RMK A01 T04320137  RH  018%=      5-min Rain = 0
KES1 132249Z 28011KT 43/14 A2979 RMK A01 T04300137  RH  018%=      5-min Rain = 0
KES1 132250Z 27010KT 43/14 A2979 RMK A01 T04300136  RH  018%=      5-min Rain = 0
KES1 132251Z 29008KT 43/14 A2979 RMK A01 T04300137  RH  018%=      5-min Rain = 0
KES1 132252Z 29010KT 43/14 A2979 RMK A01 T04310138  RH  018%=      5-min Rain = 0
KES1 132253Z 30009KT 43/14 A2979 RMK A01 T04320137  RH  018%=      5-min Rain = 0
KES1 132254Z 29010KT 43/14 A2979 RMK A01 T04310138  RH  018%=      5-min Rain = 0
KES1 132255Z 29009KT 43/14 A2979 RMK A01 T04320136  RH  018%=      5-min Rain = 0
KES1 132256Z 31007KT 43/14 A2979 RMK A01 T04310136  RH  018%=      5-min Rain = 0
KES1 132257Z 31009KT 43/14 A2979 RMK A01 T04280136  RH  018%=      5-min Rain = 0
KES1 132258Z 32011KT 43/14 A2979 RMK A01 T04280136  RH  018%=      5-min Rain = 0
KES1 132259Z 31012KT 43/14 A2979 RMK A01 T04290136  RH  018%=      5-min Rain = 0
KES1 132300Z 30010KT 43/14 A2979 RMK A01 T04300137  RH  018%=      5-min Rain = 0
KES1 132301Z 30010KT 43/14 A2979 RMK A01 T04320138  RH  018%=      5-min Rain = 0
KES1 132302Z 30013KT 43/14 A2979 RMK A01 T04330137  RH  018%=      5-min Rain = 0
KES1 132303Z 30012KT 43/14 A2979 RMK A01 T04330137  RH  018%=      5-min Rain = 0
KES1 132304Z 30012KT 43/14 A2979 RMK A01 T04320136  RH  018%=      5-min Rain = 0
KES1 132305Z 30010KT 43/13 A2979 RMK A01 T04290134  RH  018%=      5-min Rain = 0
KES1 132306Z 29010KT 43/13 A2979 RMK A01 T04270134  RH  018%=      5-min Rain = 0
KES1 132307Z 28009KT 43/14 A2979 RMK A01 T04270135  RH  018%=      5-min Rain = 0
KES1 132308Z 29009G14KT 43/14 A2979 RMK A01 T04280135  RH  018%=      5-min Rain = 0
KES1 132309Z 29011KT 43/14 A2979 RMK A01 T04280135  RH  018%=      5-min Rain = 0
KES1 132310Z 30010KT 43/14 A2979 RMK A01 T04270136  RH  018%=      5-min Rain = 0
KES1 132311Z 30011KT 43/14 A2979 RMK A01 T04260136  RH  018%=      5-min Rain = 0
KES1 132312Z 29008G13KT 43/13 A2979 RMK A01 T04280134  RH  018%=      5-min Rain = 0
KES1 132313Z 30008KT 43/13 A2979 RMK A01 T04260134  RH  018%=      5-min Rain = 0
KES1 132314Z 32010KT 43/14 A2979 RMK A01 T04250135  RH  018%=      5-min Rain = 0
KES1 132315Z 32010KT 43/14 A2979 RMK A01 T04260136  RH  018%=      5-min Rain = 0
KES1 132316Z 32010KT 43/14 A2979 RMK A01 T04270136  RH  018%=      5-min Rain = 0
KES1 132317Z 32008KT 43/14 A2979 RMK A01 T04270137  RH  018%=      5-min Rain = 0
KES1 132318Z 33008KT 43/14 A2979 RMK A01 T04280138  RH  018%=      5-min Rain = 0
KES1 132319Z 32009KT 43/14 A2979 RMK A01 T04280138  RH  018%=      5-min Rain = 0
KES1 132320Z 32008KT 43/14 A2979 RMK A01 T04280139  RH  019%=      5-min Rain = 0
KES1 132321Z 33009KT 43/14 A2979 RMK A01 T04280138  RH  018%=      5-min Rain = 0
KES1 132322Z 33008KT 43/14 A2979 RMK A01 T04260138  RH  019%=      5-min Rain = 0
KES1 132323Z 31010KT 43/14 A2979 RMK A01 T04250139  RH  019%=      5-min Rain = 0
KES1 132324Z 29009KT 43/14 A2979 RMK A01 T04260140  RH  019%=      5-min Rain = 0
KES1 132325Z 29011KT 43/14 A2979 RMK A01 T04280140  RH  019%=      5-min Rain = 0
KES1 132326Z 28008KT 43/14 A2979 RMK A01 T04280139  RH  019%=      5-min Rain = 0
KES1 132327Z 29009KT 43/14 A2979 RMK A01 T04270139  RH  019%=      5-min Rain = 0
KES1 132328Z 30010KT 43/14 A2979 RMK A01 T04260140  RH  019%=      5-min Rain = 0
KES1 132329Z 30011KT 43/14 A2979 RMK A01 T04260140  RH  019%=      5-min Rain = 0
KES1 132330Z 29009KT 43/14 A2979 RMK A01 T04270139  RH  019%=      5-min Rain = 0
KES1 132331Z 30006KT 43/14 A2979 RMK A01 T04270139  RH  019%=      5-min Rain = 0
KES1 132332Z 30008KT 43/14 A2979 RMK A01 T04260138  RH  019%=      5-min Rain = 0
KES1 132333Z 32007KT 43/14 A2979 RMK A01 T04250140  RH  019%=      5-min Rain = 0
KES1 132334Z 31010KT 43/14 A2979 RMK A01 T04260140  RH  019%=      5-min Rain = 0
KES1 132335Z 30011KT 43/14 A2979 RMK A01 T04270139  RH  019%=      5-min Rain = 0
KES1 132336Z 32009KT 43/14 A2979 RMK A01 T04260139  RH  019%=      5-min Rain = 0
KES1 132337Z 32007KT 43/14 A2979 RMK A01 T04260138  RH  019%=      5-min Rain = 0
KES1 132338Z 33008KT 43/14 A2979 RMK A01 T04250138  RH  019%=      5-min Rain = 0
KES1 132339Z 33010KT 42/14 A2979 RMK A01 T04230138  RH  019%=      5-min Rain = 0
KES1 132340Z 32009KT 42/14 A2979 RMK A01 T04220139  RH  019%=      5-min Rain = 0
KES1 132341Z 31010KT 42/14 A2979 RMK A01 T04220140  RH  019%=      5-min Rain = 0
KES1 132342Z 29010KT 42/14 A2979 RMK A01 T04230139  RH  019%=      5-min Rain = 0
KES1 132343Z 29010KT 42/14 A2979 RMK A01 T04230137  RH  019%=      5-min Rain = 0
KES1 132344Z 29009KT 42/14 A2979 RMK A01 T04220136  RH  019%=      5-min Rain = 0
KES1 132345Z 29009KT 42/14 A2979 RMK A01 T04210137  RH  019%=      5-min Rain = 0
KES1 132346Z 29008KT 42/14 A2979 RMK A01 T04210137  RH  019%=      5-min Rain = 0
KES1 132347Z 31007KT 42/14 A2979 RMK A01 T04210137  RH  019%=      5-min Rain = 0
KES1 132348Z 30008KT 42/14 A2979 RMK A01 T04220136  RH  019%=      5-min Rain = 0
KES1 132349Z 30008KT 42/14 A2979 RMK A01 T04230138  RH  019%=      5-min Rain = 0
KES1 132350Z 30009KT 42/14 A2979 RMK A01 T04230139  RH  019%=      5-min Rain = 0
KES1 132351Z 29009KT 42/14 A2979 RMK A01 T04240138  RH  019%=      5-min Rain = 0
KES1 132352Z 29007KT 42/14 A2979 RMK A01 T04240137  RH  019%=      5-min Rain = 0
KES1 132353Z 30007KT 42/14 A2979 RMK A01 T04220137  RH  019%=      5-min Rain = 0
KES1 132354Z 29007KT 42/14 A2979 RMK A01 T04210136  RH  019%=      5-min Rain = 0
KES1 132355Z 28008KT 42/14 A2979 RMK A01 T04210136  RH  019%=      5-min Rain = 0
KES1 132356Z 28007KT 42/14 A2979 RMK A01 T04210136  RH  019%=      5-min Rain = 0
KES1 132357Z 30008KT 42/14 A2979 RMK A01 T04210136  RH  019%=      5-min Rain = 0
KES1 132358Z 31008KT 42/14 A2979 RMK A01 T04210137  RH  019%=      5-min Rain = 0
KES1 132359Z 30008KT 42/14 A2979 RMK A01 T04220138  RH  019%=      5-min Rain = 0
KES1 140000Z 29008KT 42/14 A2979 RMK A01 T04240137  RH  019%=      5-min Rain = 0
KES1 140001Z 28007KT 42/14 A2979 RMK A01 T04240137  RH  019%=      5-min Rain = 0
KES1 140002Z 30008KT 42/14 A2979 RMK A01 T04230136  RH  019%=      5-min Rain = 0
KES1 140003Z 30009KT 42/14 A2979 RMK A01 T04220135  RH  019%=      5-min Rain = 0
KES1 140004Z 29009KT 42/13 A2979 RMK A01 T04210133  RH  018%=      5-min Rain = 0
KES1 140005Z 29010KT 42/13 A2979 RMK A01 T04200133  RH  019%=      5-min Rain = 0
KES1 140006Z 30008KT 42/13 A2979 RMK A01 T04190133  RH  019%=      5-min Rain = 0
KES1 140007Z 29007KT 42/13 A2979 RMK A01 T04190134  RH  019%=      5-min Rain = 0
KES1 140008Z 30009KT 42/13 A2979 RMK A01 T04190134  RH  019%=      5-min Rain = 0
KES1 140009Z 30010KT 42/13 A2979 RMK A01 T04190133  RH  019%=      5-min Rain = 0
KES1 140010Z 29011KT 42/13 A2979 RMK A01 T04180132  RH  019%=      5-min Rain = 0
KES1 140011Z 29010KT 42/13 A2979 RMK A01 T04180131  RH  018%=      5-min Rain = 0
KES1 140012Z 29009KT 42/13 A2979 RMK A01 T04170129  RH  018%=      5-min Rain = 0
KES1 140013Z 28010KT 42/13 A2979 RMK A01 T04170128  RH  018%=      5-min Rain = 0
KES1 140014Z 29009KT 42/13 A2979 RMK A01 T04170126  RH  018%=      5-min Rain = 0
KES1 140015Z 28009KT 42/13 A2979 RMK A01 T04170125  RH  018%=      5-min Rain = 0
KES1 140016Z 29010KT 42/13 A2979 RMK A01 T04160125  RH  018%=      5-min Rain = 0
KES1 140017Z 29009KT 42/13 A2979 RMK A01 T04160126  RH  018%=      5-min Rain = 0
KES1 140018Z 29010KT 42/12 A2979 RMK A01 T04150124  RH  018%=      5-min Rain = 0
KES1 140019Z 29009KT 42/12 A2979 RMK A01 T04150124  RH  018%=      5-min Rain = 0
KES1 140020Z 29008KT 42/12 A2979 RMK A01 T04150124  RH  018%=      5-min Rain = 0
KES1 140021Z 30008KT 42/12 A2979 RMK A01 T04150124  RH  018%=      5-min Rain = 0
KES1 140022Z 29010KT 42/12 A2979 RMK A01 T04150120  RH  018%=      5-min Rain = 0
KES1 140023Z 30010KT 42/12 A2979 RMK A01 T04150119  RH  017%=      5-min Rain = 0
KES1 140024Z 30010KT 41/12 A2979 RMK A01 T04140118  RH  017%=      5-min Rain = 0
KES1 140025Z 30010KT 41/12 A2979 RMK A01 T04140117  RH  017%=      5-min Rain = 0
KES1 140026Z 30011KT 41/12 A2979 RMK A01 T04140117  RH  017%=      5-min Rain = 0
KES1 140027Z 31009KT 41/12 A2979 RMK A01 T04140117  RH  017%=      5-min Rain = 0
KES1 140028Z 30009KT 41/12 A2979 RMK A01 T04140117  RH  017%=      5-min Rain = 0
KES1 140029Z 30008KT 41/12 A2979 RMK A01 T04140117  RH  017%=      5-min Rain = 0
KES1 140030Z 30007KT 42/12 A2979 RMK A01 T04150119  RH  017%=      5-min Rain = 0
KES1 140031Z 30007KT 42/12 A2979 RMK A01 T04150119  RH  017%=      5-min Rain = 0
KES1 140032Z 30008KT 42/12 A2979 RMK A01 T04150119  RH  017%=      5-min Rain = 0
KES1 140033Z 31008KT 42/12 A2979 RMK A01 T04150117  RH  017%=      5-min Rain = 0
KES1 140034Z 30007KT 41/12 A2979 RMK A01 T04140116  RH  017%=      5-min Rain = 0
KES1 140035Z 30009KT 41/12 A2979 RMK A01 T04140116  RH  017%=      5-min Rain = 0
KES1 140036Z 30008KT 41/11 A2979 RMK A01 T04130113  RH  017%=      5-min Rain = 0
KES1 140037Z 30007KT 41/11 A298 RMK A01 T04120113  RH  017%=      5-min Rain = 0
KES1 140038Z 30006KT 41/11 A298 RMK A01 T04120114  RH  017%=      5-min Rain = 0
KES1 140039Z 30006KT 41/12 A298 RMK A01 T04130115  RH  017%=      5-min Rain = 0
KES1 140040Z 30007KT 41/12 A298 RMK A01 T04120116  RH  017%=      5-min Rain = 0
KES1 140041Z 30007KT 41/12 A298 RMK A01 T04120115  RH  017%=      5-min Rain = 0
KES1 140042Z 30007KT 41/12 A298 RMK A01 T04120116  RH  017%=      5-min Rain = 0
KES1 140043Z 30007KT 41/12 A298 RMK A01 T04110116  RH  017%=      5-min Rain = 0
KES1 140044Z 30006KT 41/12 A298 RMK A01 T04110117  RH  018%=      5-min Rain = 0
KES1 140045Z 30007KT 41/12 A298 RMK A01 T04100118  RH  018%=      5-min Rain = 0
KES1 140046Z 30007KT 41/12 A298 RMK A01 T04090118  RH  018%=      5-min Rain = 0
KES1 140047Z 30006KT 41/12 A298 RMK A01 T04090120  RH  018%=      5-min Rain = 0
KES1 140048Z 30007KT 41/12 A298 RMK A01 T04080120  RH  018%=      5-min Rain = 0
KES1 140049Z 30007KT 41/12 A298 RMK A01 T04070121  RH  018%=      5-min Rain = 0
KES1 140050Z 30006KT 41/12 A298 RMK A01 T04060122  RH  019%=      5-min Rain = 0
KES1 140051Z 30006KT 41/12 A298 RMK A01 T04060123  RH  019%=      5-min Rain = 0
KES1 140052Z 30006KT 41/12 A298 RMK A01 T04060123  RH  019%=      5-min Rain = 0
KES1 140053Z 30006KT 41/12 A298 RMK A01 T04050123  RH  019%=      5-min Rain = 0
KES1 140054Z 30006KT 40/12 A298 RMK A01 T04040123  RH  019%=      5-min Rain = 0
KES1 140055Z 30006KT 40/12 A298 RMK A01 T04030124  RH  019%=      5-min Rain = 0
KES1 140056Z 30006KT 40/12 A298 RMK A01 T04030124  RH  019%=      5-min Rain = 0
KES1 140057Z 30006KT 40/13 A298 RMK A01 T04020125  RH  019%=      5-min Rain = 0
KES1 140058Z 30006KT 40/13 A298 RMK A01 T04010125  RH  019%=      5-min Rain = 0
KES1 140059Z 30006KT 40/13 A298 RMK A01 T04010126  RH  020%=      5-min Rain = 0
KES1 140100Z 30006KT 40/13 A298 RMK A01 T04000126  RH  020%=      5-min Rain = 0
KES1 140101Z 30006KT 40/13 A298 RMK A01 T03990126  RH  020%=      5-min Rain = 0
KES1 140102Z 30005KT 40/13 A298 RMK A01 T03990126  RH  020%=      5-min Rain = 0
KES1 140103Z 30005KT 40/13 A298 RMK A01 T03980126  RH  020%=      5-min Rain = 0
KES1 140104Z 30005KT 40/13 A298 RMK A01 T03970126  RH  020%=      5-min Rain = 0
KES1 140105Z 30005KT 40/13 A298 RMK A01 T03970127  RH  020%=      5-min Rain = 0
KES1 140106Z 31005KT 40/13 A298 RMK A01 T03960127  RH  020%=      5-min Rain = 0
KES1 140107Z 31005KT 40/13 A298 RMK A01 T03950127  RH  020%=      5-min Rain = 0
KES1 140108Z 31006KT 39/13 A298 RMK A01 T03940128  RH  021%=      5-min Rain = 0
KES1 140109Z 31005KT 39/13 A298 RMK A01 T03940128  RH  021%=      5-min Rain = 0
KES1 140110Z 31004KT 39/13 A298 RMK A01 T03930128  RH  021%=      5-min Rain = 0
KES1 140111Z 31005KT 39/13 A298 RMK A01 T03930129  RH  021%=      5-min Rain = 0
KES1 140112Z 30005KT 39/13 A298 RMK A01 T03920129  RH  021%=      5-min Rain = 0
KES1 140113Z 30005KT 39/13 A298 RMK A01 T03910130  RH  021%=      5-min Rain = 0
KES1 140114Z 30005KT 39/13 A298 RMK A01 T03900130  RH  021%=      5-min Rain = 0
KES1 140115Z 30005KT 39/13 A298 RMK A01 T03890130  RH  022%=      5-min Rain = 0
KES1 140116Z 30004KT 39/13 A298 RMK A01 T03880130  RH  022%=      5-min Rain = 0
KES1 140117Z 30004KT 39/13 A298 RMK A01 T03870131  RH  022%=      5-min Rain = 0
KES1 140118Z 30004KT 39/13 A298 RMK A01 T03850131  RH  022%=      5-min Rain = 0
KES1 140119Z 30004KT 38/13 A298 RMK A01 T03840131  RH  022%=      5-min Rain = 0
KES1 140120Z 30005KT 38/13 A298 RMK A01 T03830131  RH  022%=      5-min Rain = 0
KES1 140121Z 30005KT 38/13 A298 RMK A01 T03810130  RH  022%=      5-min Rain = 0
KES1 140122Z 30005KT 38/13 A2981 RMK A01 T03800130  RH  023%=      5-min Rain = 0
KES1 140123Z 30005KT 38/13 A2981 RMK A01 T03790130  RH  023%=      5-min Rain = 0
KES1 140124Z 30005KT 38/13 A2981 RMK A01 T03780130  RH  023%=      5-min Rain = 0
KES1 140125Z 30005KT 38/13 A2981 RMK A01 T03760130  RH  023%=      5-min Rain = 0
KES1 140126Z 30005KT 38/13 A2981 RMK A01 T03750130  RH  023%=      5-min Rain = 0
KES1 140127Z 30005KT 37/13 A2981 RMK A01 T03740130  RH  023%=      5-min Rain = 0
KES1 140128Z 30005KT 37/13 A2981 RMK A01 T03740130  RH  023%=      5-min Rain = 0
KES1 140129Z 30004KT 37/13 A2981 RMK A01 T03730131  RH  023%=      5-min Rain = 0
KES1 140130Z 30005KT 37/13 A2981 RMK A01 T03720131  RH  024%=      5-min Rain = 0
KES1 140131Z 30005KT 37/13 A2981 RMK A01 T03720131  RH  024%=      5-min Rain = 0
KES1 140132Z 30005KT 37/13 A2981 RMK A01 T03710131  RH  024%=      5-min Rain = 0
KES1 140133Z 31005KT 37/13 A2981 RMK A01 T03710131  RH  024%=      5-min Rain = 0
KES1 140134Z 31005KT 37/13 A2981 RMK A01 T03710131  RH  024%=      5-min Rain = 0
KES1 140135Z 30005KT 37/13 A2981 RMK A01 T03700131  RH  024%=      5-min Rain = 0
KES1 140136Z 31005KT 37/13 A2981 RMK A01 T03690131  RH  024%=      5-min Rain = 0
KES1 140137Z 31005KT 37/13 A2981 RMK A01 T03690131  RH  024%=      5-min Rain = 0
KES1 140138Z 31004KT 37/13 A2981 RMK A01 T03680131  RH  024%=      5-min Rain = 0
KES1 140139Z 31005KT 37/13 A2981 RMK A01 T03670131  RH  024%=      5-min Rain = 0
KES1 140140Z 31005KT 37/13 A2981 RMK A01 T03670132  RH  025%=      5-min Rain = 0
KES1 140141Z 31005KT 37/13 A2981 RMK A01 T03660132  RH  025%=      5-min Rain = 0
KES1 140142Z 31004KT 37/13 A2981 RMK A01 T03650132  RH  025%=      5-min Rain = 0
KES1 140143Z 30005KT 37/13 A2981 RMK A01 T03650133  RH  025%=      5-min Rain = 0
KES1 140144Z 30005KT 36/13 A2981 RMK A01 T03640133  RH  025%=      5-min Rain = 0
KES1 140145Z 31005KT 36/13 A2981 RMK A01 T03630134  RH  025%=      5-min Rain = 0
KES1 140146Z 31005KT 36/13 A2981 RMK A01 T03620134  RH  026%=      5-min Rain = 0
KES1 140147Z 31005KT 36/13 A2981 RMK A01 T03620134  RH  026%=      5-min Rain = 0
KES1 140148Z 31005KT 36/14 A2981 RMK A01 T03610135  RH  026%=      5-min Rain = 0
KES1 140149Z 31005KT 36/14 A2981 RMK A01 T03610136  RH  026%=      5-min Rain = 0
KES1 140150Z 30005KT 36/14 A2981 RMK A01 T03600136  RH  026%=      5-min Rain = 0
KES1 140151Z 31005KT 36/14 A2981 RMK A01 T03590136  RH  026%=      5-min Rain = 0
KES1 140152Z 31005KT 36/14 A2981 RMK A01 T03590137  RH  026%=      5-min Rain = 0
KES1 140153Z 31005KT 36/14 A2981 RMK A01 T03580137  RH  027%=      5-min Rain = 0
KES1 140154Z 31004KT 36/14 A2981 RMK A01 T03580138  RH  027%=      5-min Rain = 0
KES1 140155Z 31004KT 36/14 A2981 RMK A01 T03570138  RH  027%=      5-min Rain = 0
KES1 140156Z 30004KT 36/14 A2981 RMK A01 T03560138  RH  027%=      5-min Rain = 0
KES1 140157Z 30004KT 36/14 A2981 RMK A01 T03550138  RH  027%=      5-min Rain = 0
KES1 140158Z 30003KT 35/14 A2981 RMK A01 T03540138  RH  027%=      5-min Rain = 0
KES1 140159Z 30003KT 35/14 A2982 RMK A01 T03540138  RH  027%=      5-min Rain = 0
KES1 140200Z 31003KT 35/14 A2982 RMK A01 T03530138  RH  028%=      5-min Rain = 0
KES1 140201Z 31003KT 35/14 A2982 RMK A01 T03530138  RH  028%=      5-min Rain = 0
KES1 140202Z 31003KT 35/14 A2982 RMK A01 T03520138  RH  028%=      5-min Rain = 0
KES1 140203Z 31003KT 35/14 A2982 RMK A01 T03530139  RH  028%=      5-min Rain = 0
KES1 140204Z 31003KT 35/14 A2982 RMK A01 T03520139  RH  028%=      5-min Rain = 0
KES1 140205Z 31003KT 35/14 A2982 RMK A01 T03520139  RH  028%=      5-min Rain = 0
KES1 140206Z 31003KT 35/14 A2982 RMK A01 T03510139  RH  028%=      5-min Rain = 0
KES1 140207Z 30004KT 35/14 A2982 RMK A01 T03500140  RH  028%=      5-min Rain = 0
KES1 140208Z 31003KT 35/14 A2982 RMK A01 T03500140  RH  028%=      5-min Rain = 0
KES1 140209Z 31003KT 35/14 A2982 RMK A01 T03500140  RH  029%=      5-min Rain = 0
KES1 140210Z 31003KT 35/14 A2982 RMK A01 T03490140  RH  029%=      5-min Rain = 0
KES1 140211Z 32003KT 35/14 A2982 RMK A01 T03480140  RH  029%=      5-min Rain = 0
KES1 140212Z 32003KT 35/14 A2982 RMK A01 T03480141  RH  029%=      5-min Rain = 0
KES1 140213Z 32003KT 35/14 A2982 RMK A01 T03470140  RH  029%=      5-min Rain = 0
KES1 140214Z 32003KT 35/14 A2982 RMK A01 T03470141  RH  029%=      5-min Rain = 0
KES1 140215Z 31003KT 35/14 A2982 RMK A01 T03470141  RH  029%=      5-min Rain = 0
KES1 140216Z 31003KT 35/14 A2982 RMK A01 T03460141  RH  029%=      5-min Rain = 0
KES1 140217Z 31003KT 35/14 A2982 RMK A01 T03460141  RH  029%=      5-min Rain = 0
KES1 140218Z 31002KT 35/14 A2982 RMK A01 T03460141  RH  029%=      5-min Rain = 0
KES1 140219Z 32003KT 35/14 A2982 RMK A01 T03450141  RH  029%=      5-min Rain = 0
KES1 140220Z 31003KT 34/14 A2982 RMK A01 T03440141  RH  030%=      5-min Rain = 0
KES1 140221Z 31003KT 34/14 A2982 RMK A01 T03440141  RH  030%=      5-min Rain = 0
KES1 140222Z 32004KT 34/14 A2982 RMK A01 T03440142  RH  030%=      5-min Rain = 0
KES1 140223Z 32004KT 34/14 A2982 RMK A01 T03440142  RH  030%=      5-min Rain = 0
KES1 140224Z 32003KT 34/14 A2982 RMK A01 T03430142  RH  030%=      5-min Rain = 0
KES1 140225Z 32004KT 34/14 A2982 RMK A01 T03430142  RH  030%=      5-min Rain = 0
KES1 140226Z 31004KT 34/14 A2982 RMK A01 T03420143  RH  030%=      5-min Rain = 0
KES1 140227Z 31004KT 34/14 A2982 RMK A01 T03400143  RH  031%=      5-min Rain = 0
KES1 140228Z 31004KT 34/14 A2982 RMK A01 T03400144  RH  031%=      5-min Rain = 0
KES1 140229Z 31004KT 34/14 A2982 RMK A01 T03390143  RH  031%=      5-min Rain = 0
KES1 140230Z 31004KT 34/14 A2982 RMK A01 T03380144  RH  031%=      5-min Rain = 0
KES1 140231Z 31004KT 34/14 A2982 RMK A01 T03370144  RH  031%=      5-min Rain = 0
KES1 140232Z 31004KT 34/14 A2982 RMK A01 T03370143  RH  031%=      5-min Rain = 0
KES1 140233Z 32005KT 34/14 A2983 RMK A01 T03360143  RH  031%=      5-min Rain = 0
KES1 140234Z 32006KT 34/14 A2983 RMK A01 T03360144  RH  031%=      5-min Rain = 0
KES1 140235Z 32006KT 34/14 A2983 RMK A01 T03360144  RH  031%=      5-min Rain = 0
KES1 140236Z 32006KT 34/14 A2983 RMK A01 T03360144  RH  031%=      5-min Rain = 0
KES1 140237Z 32006KT 34/14 A2983 RMK A01 T03360144  RH  032%=      5-min Rain = 0
KES1 140238Z 33006KT 34/15 A2983 RMK A01 T03360145  RH  032%=      5-min Rain = 0
KES1 140239Z 33006KT 34/15 A2983 RMK A01 T03360145  RH  032%=      5-min Rain = 0
KES1 140240Z 33006KT 34/14 A2983 RMK A01 T03370144  RH  031%=      5-min Rain = 0
KES1 140241Z 33006KT 34/14 A2983 RMK A01 T03380144  RH  031%=      5-min Rain = 0
KES1 140242Z 33005KT 34/14 A2983 RMK A01 T03390144  RH  031%=      5-min Rain = 0
KES1 140243Z 34006KT 34/15 A2983 RMK A01 T03390145  RH  031%=      5-min Rain = 0
KES1 140244Z 33005KT 34/15 A2983 RMK A01 T03380145  RH  031%=      5-min Rain = 0
KES1 140245Z 33005KT 34/14 A2983 RMK A01 T03370144  RH  031%=      5-min Rain = 0
KES1 140246Z 33005KT 34/15 A2983 RMK A01 T03370145  RH  031%=      5-min Rain = 0
KES1 140247Z 32005KT 34/15 A2983 RMK A01 T03360145  RH  032%=      5-min Rain = 0
KES1 140248Z 32005KT 33/15 A2983 RMK A01 T03340145  RH  032%=      5-min Rain = 0
KES1 140249Z 34005KT 33/15 A2983 RMK A01 T03330145  RH  032%=      5-min Rain = 0
KES1 140250Z 34005KT 33/15 A2983 RMK A01 T03320145  RH  032%=      5-min Rain = 0
KES1 140251Z 34005KT 33/15 A2983 RMK A01 T03320145  RH  032%=      5-min Rain = 0
KES1 140252Z 34005KT 33/15 A2983 RMK A01 T03310145  RH  032%=      5-min Rain = 0
KES1 140253Z 35005KT 33/15 A2983 RMK A01 T03310145  RH  033%=      5-min Rain = 0
KES1 140254Z 35005KT 33/15 A2983 RMK A01 T03310145  RH  033%=      5-min Rain = 0
KES1 140255Z 34005KT 33/14 A2983 RMK A01 T03310144  RH  032%=      5-min Rain = 0
KES1 140256Z 34004KT 33/14 A2983 RMK A01 T03310144  RH  032%=      5-min Rain = 0
KES1 140257Z 33004KT 33/14 A2983 RMK A01 T03320144  RH  032%=      5-min Rain = 0
KES1 140258Z 32003KT 33/14 A2984 RMK A01 T03320144  RH  032%=      5-min Rain = 0
KES1 140259Z 33004KT 33/15 A2984 RMK A01 T03320145  RH  032%=      5-min Rain = 0
KES1 140300Z 32003KT 33/15 A2984 RMK A01 T03310145  RH  033%=      5-min Rain = 0
KES1 140301Z 32004KT 33/15 A2984 RMK A01 T03300145  RH  033%=      5-min Rain = 0
KES1 140302Z 32003KT 33/15 A2984 RMK A01 T03290146  RH  033%=      5-min Rain = 0
KES1 140303Z 34003KT 33/15 A2984 RMK A01 T03280146  RH  033%=      5-min Rain = 0
KES1 140304Z 34003KT 33/15 A2984 RMK A01 T03280146  RH  033%=      5-min Rain = 0
KES1 140305Z 35003KT 33/15 A2984 RMK A01 T03270145  RH  033%=      5-min Rain = 0
KES1 140306Z 35003KT 33/15 A2984 RMK A01 T03270145  RH  033%=      5-min Rain = 0
KES1 140307Z 35003KT 33/15 A2984 RMK A01 T03270145  RH  033%=      5-min Rain = 0
KES1 140308Z 34003KT 33/15 A2984 RMK A01 T03260145  RH  033%=      5-min Rain = 0
KES1 140309Z 34003KT 33/14 A2984 RMK A01 T03260144  RH  033%=      5-min Rain = 0
KES1 140310Z 34003KT 33/14 A2984 RMK A01 T03260144  RH  033%=      5-min Rain = 0
KES1 140311Z 34002KT 33/14 A2984 RMK A01 T03260144  RH  033%=      5-min Rain = 0
KES1 140312Z 34002KT 33/14 A2984 RMK A01 T03250144  RH  033%=      5-min Rain = 0
KES1 140313Z 34002KT 32/14 A2984 RMK A01 T03240144  RH  034%=      5-min Rain = 0
KES1 140314Z 35002KT 32/14 A2984 RMK A01 T03230144  RH  034%=      5-min Rain = 0
KES1 140315Z 35002KT 32/14 A2984 RMK A01 T03220144  RH  034%=      5-min Rain = 0
KES1 140316Z 35001KT 32/14 A2984 RMK A01 T03220144  RH  034%=      5-min Rain = 0
KES1 140317Z 00001KT 32/14 A2984 RMK A01 T03210144  RH  034%=      5-min Rain = 0
KES1 140318Z 36001KT 32/14 A2984 RMK A01 T03200144  RH  034%=      5-min Rain = 0
KES1 140319Z 01001KT 32/14 A2984 RMK A01 T03200144  RH  035%=      5-min Rain = 0
KES1 140320Z 01001KT 32/15 A2984 RMK A01 T03200145  RH  035%=      5-min Rain = 0
KES1 140321Z 01001KT 32/14 A2984 RMK A01 T03190144  RH  035%=      5-min Rain = 0
KES1 140322Z 03001KT 32/14 A2984 RMK A01 T03200144  RH  035%=      5-min Rain = 0
KES1 140323Z 04001KT 32/15 A2984 RMK A01 T03200145  RH  035%=      5-min Rain = 0
KES1 140324Z 06001KT 32/14 A2984 RMK A01 T03200144  RH  034%=      5-min Rain = 0
KES1 140325Z 08002KT 32/15 A2985 RMK A01 T03210145  RH  034%=      5-min Rain = 0
KES1 140326Z 08002KT 32/14 A2985 RMK A01 T03200144  RH  035%=      5-min Rain = 0
KES1 140327Z 08003KT 32/14 A2985 RMK A01 T03180144  RH  035%=      5-min Rain = 0
KES1 140328Z 08004KT 32/14 A2985 RMK A01 T03180144  RH  035%=      5-min Rain = 0
KES1 140329Z 08004KT 32/14 A2985 RMK A01 T03170144  RH  035%=      5-min Rain = 0
KES1 140330Z 08005KT 32/14 A2985 RMK A01 T03160144  RH  035%=      5-min Rain = 0
KES1 140331Z 10007KT 32/14 A2985 RMK A01 T03150144  RH  035%=      5-min Rain = 0
KES1 140332Z 10008KT 31/14 A2985 RMK A01 T03110142  RH  036%=      5-min Rain = 0
KES1 140333Z 10007KT 31/14 A2985 RMK A01 T03080142  RH  036%=      5-min Rain = 0
KES1 140334Z 10006KT 31/14 A2985 RMK A01 T03090143  RH  036%=      5-min Rain = 0
KES1 140335Z 11005KT 31/14 A2985 RMK A01 T03110144  RH  036%=      5-min Rain = 0
KES1 140336Z 11004KT 31/14 A2985 RMK A01 T03130144  RH  036%=      5-min Rain = 0
KES1 140337Z 09004KT 31/14 A2985 RMK A01 T03140144  RH  036%=      5-min Rain = 0
KES1 140338Z 08004KT 32/15 A2985 RMK A01 T03160145  RH  035%=      5-min Rain = 0
KES1 140339Z 09005KT 32/15 A2985 RMK A01 T03180145  RH  035%=      5-min Rain = 0
KES1 140340Z 06006KT 32/15 A2985 RMK A01 T03200145  RH  035%=      5-min Rain = 0
KES1 140341Z 05008KT 32/15 A2985 RMK A01 T03210145  RH  034%=      5-min Rain = 0
KES1 140342Z 06006KT 32/15 A2986 RMK A01 T03230145  RH  034%=      5-min Rain = 0
KES1 140343Z 07006KT 32/15 A2986 RMK A01 T03240145  RH  034%=      5-min Rain = 0
KES1 140344Z 07006KT 32/15 A2986 RMK A01 T03230145  RH  034%=      5-min Rain = 0
KES1 140345Z 07006KT 32/15 A2986 RMK A01 T03220145  RH  034%=      5-min Rain = 0
KES1 140346Z 07005KT 32/15 A2986 RMK A01 T03220145  RH  034%=      5-min Rain = 0
KES1 140347Z 07005KT 32/15 A2986 RMK A01 T03220145  RH  034%=      5-min Rain = 0
KES1 140348Z 07005KT 32/15 A2986 RMK A01 T03210145  RH  034%=      5-min Rain = 0
KES1 140349Z 07005KT 32/15 A2986 RMK A01 T03210145  RH  034%=      5-min Rain = 0
KES1 140350Z 06006KT 32/14 A2986 RMK A01 T03200144  RH  035%=      5-min Rain = 0
KES1 140351Z 06005KT 32/14 A2986 RMK A01 T03190144  RH  035%=      5-min Rain = 0
KES1 140352Z 05005KT 32/14 A2986 RMK A01 T03190144  RH  035%=      5-min Rain = 0
KES1 140353Z 05005KT 32/14 A2986 RMK A01 T03200144  RH  034%=      5-min Rain = 0
KES1 140354Z 04004KT 32/14 A2986 RMK A01 T03210144  RH  034%=      5-min Rain = 0
KES1 140355Z 03004KT 32/14 A2986 RMK A01 T03200144  RH  034%=      5-min Rain = 0
KES1 140356Z 02005KT 32/14 A2986 RMK A01 T03210143  RH  034%=      5-min Rain = 0
KES1 140357Z 02005KT 32/14 A2986 RMK A01 T03220143  RH  034%=      5-min Rain = 0
KES1 140358Z 02006KT 32/14 A2986 RMK A01 T03230143  RH  034%=      5-min Rain = 0
KES1 140359Z 03005KT 32/14 A2986 RMK A01 T03240144  RH  034%=      5-min Rain = 0
KES1 140400Z 03005KT 33/14 A2986 RMK A01 T03250144  RH  033%=      5-min Rain = 0
KES1 140401Z 03005KT 33/14 A2986 RMK A01 T03260144  RH  033%=      5-min Rain = 0
KES1 140402Z 03005KT 33/14 A2986 RMK A01 T03250144  RH  033%=      5-min Rain = 0
KES1 140403Z 02005KT 33/14 A2986 RMK A01 T03250144  RH  034%=      5-min Rain = 0
KES1 140404Z 02003KT 32/14 A2986 RMK A01 T03240144  RH  034%=      5-min Rain = 0
KES1 140405Z 02003KT 32/14 A2986 RMK A01 T03230144  RH  034%=      5-min Rain = 0
KES1 140406Z 03003KT 32/14 A2986 RMK A01 T03220144  RH  034%=      5-min Rain = 0
KES1 140407Z 03003KT 32/14 A2986 RMK A01 T03220144  RH  034%=      5-min Rain = 0
KES1 140408Z 03003KT 32/14 A2986 RMK A01 T03210144  RH  034%=      5-min Rain = 0
KES1 140409Z 03003KT 32/14 A2986 RMK A01 T03210144  RH  034%=      5-min Rain = 0
KES1 140410Z 02004KT 32/15 A2986 RMK A01 T03210145  RH  034%=      5-min Rain = 0
KES1 140411Z 36004KT 32/15 A2986 RMK A01 T03200145  RH  035%=      5-min Rain = 0
KES1 140412Z 35005KT 32/15 A2986 RMK A01 T03210146  RH  035%=      5-min Rain = 0
KES1 140413Z 35005KT 32/15 A2986 RMK A01 T03220146  RH  035%=      5-min Rain = 0
KES1 140414Z 34006KT 32/15 A2986 RMK A01 T03220147  RH  035%=      5-min Rain = 0
KES1 140415Z 34006KT 32/15 A2986 RMK A01 T03230149  RH  035%=      5-min Rain = 0
KES1 140416Z 34006KT 32/15 A2986 RMK A01 T03230149  RH  035%=      5-min Rain = 0
KES1 140417Z 33005KT 32/15 A2986 RMK A01 T03230149  RH  035%=      5-min Rain = 0
KES1 140418Z 33005KT 32/15 A2986 RMK A01 T03220150  RH  035%=      5-min Rain = 0
KES1 140419Z 33006KT 32/15 A2986 RMK A01 T03200151  RH  036%=      5-min Rain = 0
KES1 140420Z 33006KT 32/15 A2986 RMK A01 T03200153  RH  036%=      5-min Rain = 0
KES1 140421Z 33005KT 32/15 A2986 RMK A01 T03190152  RH  036%=      5-min Rain = 0
KES1 140422Z 32006KT 32/15 A2986 RMK A01 T03190153  RH  037%=      5-min Rain = 0
KES1 140423Z 31005KT 32/15 A2986 RMK A01 T03180153  RH  037%=      5-min Rain = 0
KES1 140424Z 31005KT 32/15 A2986 RMK A01 T03160152  RH  037%=      5-min Rain = 0
KES1 140425Z 29005KT 32/15 A2986 RMK A01 T03150152  RH  037%=      5-min Rain = 0
KES1 140426Z 29005KT 31/15 A2986 RMK A01 T03140152  RH  037%=      5-min Rain = 0
KES1 140427Z 29005KT 31/15 A2986 RMK A01 T03130152  RH  038%=      5-min Rain = 0
KES1 140428Z 30005KT 31/15 A2986 RMK A01 T03130153  RH  038%=      5-min Rain = 0
KES1 140429Z 30004KT 31/15 A2986 RMK A01 T03130152  RH  038%=      5-min Rain = 0
KES1 140430Z 29004KT 31/15 A2986 RMK A01 T03140152  RH  037%=      5-min Rain = 0
KES1 140431Z 30005KT 31/15 A2986 RMK A01 T03140152  RH  037%=      5-min Rain = 0
KES1 140432Z 31004KT 31/15 A2986 RMK A01 T03140153  RH  038%=      5-min Rain = 0
KES1 140433Z 32004KT 31/15 A2986 RMK A01 T03130153  RH  038%=      5-min Rain = 0
KES1 140434Z 33004KT 31/16 A2986 RMK A01 T03130155  RH  039%=      5-min Rain = 0
KES1 140435Z 33004KT 31/16 A2986 RMK A01 T03120157  RH  039%=      5-min Rain = 0
KES1 140436Z 33005KT 31/16 A2986 RMK A01 T03120158  RH  039%=      5-min Rain = 0
KES1 140437Z 33005KT 31/16 A2986 RMK A01 T03120158  RH  040%=      5-min Rain = 0
KES1 140438Z 33005KT 31/16 A2986 RMK A01 T03120159  RH  040%=      5-min Rain = 0
KES1 140439Z 33004KT 31/16 A2986 RMK A01 T03110161  RH  040%=      5-min Rain = 0
KES1 140440Z 32004KT 31/16 A2986 RMK A01 T03110161  RH  040%=      5-min Rain = 0
KES1 140441Z 32005KT 31/16 A2986 RMK A01 T03110162  RH  041%=      5-min Rain = 0
KES1 140442Z 32005KT 31/16 A2986 RMK A01 T03110163  RH  041%=      5-min Rain = 0
KES1 140443Z 31005KT 31/16 A2986 RMK A01 T03110164  RH  041%=      5-min Rain = 0
KES1 140444Z 31006KT 31/17 A2986 RMK A01 T03110165  RH  041%=      5-min Rain = 0
KES1 140445Z 31006KT 31/17 A2986 RMK A01 T03110165  RH  042%=      5-min Rain = 0
KES1 140446Z 31005KT 31/17 A2986 RMK A01 T03100165  RH  042%=      5-min Rain = 0
KES1 140447Z 30006KT 31/17 A2986 RMK A01 T03100165  RH  042%=      5-min Rain = 0
KES1 140448Z 30006KT 31/16 A2987 RMK A01 T03090164  RH  042%=      5-min Rain = 0
KES1 140449Z 30006KT 31/17 A2987 RMK A01 T03080165  RH  042%=      5-min Rain = 0
KES1 140450Z 30006KT 31/17 A2987 RMK A01 T03080166  RH  042%=      5-min Rain = 0
KES1 140451Z 30006KT 31/17 A2987 RMK A01 T03070167  RH  043%=      5-min Rain = 0
KES1 140452Z 30006KT 31/17 A2987 RMK A01 T03070166  RH  043%=      5-min Rain = 0
KES1 140453Z 30005KT 31/17 A2987 RMK A01 T03070166  RH  043%=      5-min Rain = 0
KES1 140454Z 29005KT 31/17 A2987 RMK A01 T03060166  RH  043%=      5-min Rain = 0
KES1 140455Z 29005KT 31/17 A2987 RMK A01 T03050167  RH  043%=      5-min Rain = 0
KES1 140456Z 29005KT 31/17 A2987 RMK A01 T03050167  RH  043%=      5-min Rain = 0
KES1 140457Z 29005KT 30/17 A2987 RMK A01 T03040167  RH  044%=      5-min Rain = 0
KES1 140458Z 29005KT 30/17 A2987 RMK A01 T03040169  RH  044%=      5-min Rain = 0
KES1 140459Z 30006KT 30/17 A2987 RMK A01 T03040171  RH  045%=      5-min Rain = 0

Page generated in 0.3869 seconds.